Dirección General De Aeronáutica Civil

Dirección Meteorológica de Chile - Servicios Climáticos

Informe General de Control de Calidad de la Estación

Listado de niveles de control de calidad para algunos parámetros
Estación Vicuña, Parque Los Pimientos (300046)
Fecha de Revisión de los datos :

Elementos

Registros Niveles de Control Total
Nivel 0 Nivel 1 Nivel 2 Nivel 3 Errores Porcentaje
01 Temperatura del Aire Seco 55.615 0 . 0 . 0 . 0 . 0 0.00 %
02 Temperatura de Rocío 55.644 0 . 0 . 0 . 0 . 0 0.00 %
03 Humedad Relativa del Aire 55.608 0 . 0 . 0 . 0 . 0 0.00 %
04 Temperatura Máxima PM 2.326 0 . 0 . 3 0.13 % 0 . 3 0.13 %
05 Temperatura Mínima AM 2.319 0 . 0 . 557 24.02 % 0 . 557 24.02 %
06 Viento a 10 m. de Altura 55.644 0 . 0 . 0 . 0 . 0 0.00 %
07 Agua Caida, Acumulada 6 Horas 9.279 0 . 0 . 0 . 0 . 0 0.00 %
08 Presión Atm. a Nivel de Estación (QFE) 55.608 0 . 0 . 0 . 0 . 0 0.00 %
09 Presión Atm. a Nivel Medio del Mar (QFF) 55.608 0 . 0 . 0 . 0 . 0 0.00 %
10 Presión Atm. Estándar OACI (QNH) 55.608 0 . 0 . 0 . 0 . 0 0.00 %

Totales

403.259 . 0.0000 % . 0.0000 % . 0.1389 % . 0.0000 % 560 0.1389 %

Detalle de Errores Encontrados

Nivel Fecha del Dato Descripción Información Error Fecha Ingreso
2 2017-10-12 12:00:00 Temperatura 7.4 del 12-10-2017 09:00, Menor que la Mínima 8.6 12-10-2017 12:00 7.4 -- 8.6 2017-10-12 12:22:00
2 2017-10-13 12:00:00 Temperatura 3.6 del 13-10-2017 10:00, Menor que la Mínima 10.0 13-10-2017 12:00 3.6 -- 10.0 2017-10-13 12:22:00
2 2017-10-14 12:00:00 Temperatura 4.8 del 14-10-2017 10:00, Menor que la Mínima 11.5 14-10-2017 12:00 4.8 -- 11.5 2017-10-14 12:22:00
2 2017-10-15 12:00:00 Temperatura 5.9 del 15-10-2017 10:00, Menor que la Mínima 12.4 15-10-2017 12:00 5.9 -- 12.4 2017-10-15 12:22:00
2 2017-10-16 12:00:00 Temperatura 9.4 del 16-10-2017 10:00, Menor que la Mínima 15.1 16-10-2017 12:00 9.4 -- 15.1 2017-10-16 12:22:00
2 2017-10-17 12:00:00 Temperatura 5.7 del 17-10-2017 10:00, Menor que la Mínima 10.8 17-10-2017 12:00 5.7 -- 10.8 2017-10-17 12:22:00
2 2017-10-18 12:00:00 Temperatura 8.2 del 18-10-2017 10:00, Menor que la Mínima 12.5 18-10-2017 12:00 8.2 -- 12.5 2017-10-18 12:22:00
2 2017-10-19 12:00:00 Temperatura 8.3 del 19-10-2017 10:00, Menor que la Mínima 12.6 19-10-2017 12:00 8.3 -- 12.6 2017-10-19 12:22:00
2 2017-10-20 12:00:00 Temperatura 9.0 del 20-10-2017 10:00, Menor que la Mínima 17.9 20-10-2017 12:00 9.0 -- 17.9 2017-10-20 12:22:00
2 2017-10-21 12:00:00 Temperatura 8.1 del 21-10-2017 10:00, Menor que la Mínima 14.0 21-10-2017 12:00 8.1 -- 14.0 2017-10-21 12:22:00
2 2017-10-22 12:00:00 Temperatura 9.6 del 22-10-2017 10:00, Menor que la Mínima 16.3 22-10-2017 12:00 9.6 -- 16.3 2017-10-22 12:22:00
2 2017-10-23 12:00:00 Temperatura 11.3 del 23-10-2017 10:00, Menor que la Mínima 18.8 23-10-2017 12:00 11.3 -- 18.8 2017-10-23 12:22:00
2 2017-10-24 12:00:00 Temperatura 9.9 del 24-10-2017 09:00, Menor que la Mínima 17.7 24-10-2017 12:00 9.9 -- 17.7 2017-10-24 12:22:00
2 2017-10-25 12:00:00 Temperatura 7.9 del 25-10-2017 10:00, Menor que la Mínima 16.9 25-10-2017 12:00 7.9 -- 16.9 2017-10-25 12:22:00
2 2017-10-26 12:00:00 Temperatura 9.8 del 26-10-2017 07:00, Menor que la Mínima 14.9 26-10-2017 12:00 9.8 -- 14.9 2017-10-26 12:22:00
2 2017-10-27 12:00:00 Temperatura 7.6 del 27-10-2017 10:00, Menor que la Mínima 12.2 27-10-2017 12:00 7.6 -- 12.2 2017-10-27 12:22:00
2 2017-10-28 12:00:00 Temperatura 9.8 del 28-10-2017 05:00, Menor que la Mínima 14.1 28-10-2017 12:00 9.8 -- 14.1 2017-10-28 12:22:00
2 2017-10-29 12:00:00 Temperatura 6.1 del 29-10-2017 10:00, Menor que la Mínima 10.4 29-10-2017 12:00 6.1 -- 10.4 2017-10-29 12:22:00
2 2017-10-30 12:00:00 Temperatura 6.1 del 30-10-2017 10:00, Menor que la Mínima 11.9 30-10-2017 12:00 6.1 -- 11.9 2017-10-30 12:22:00
2 2017-10-31 12:00:00 Temperatura 6.7 del 31-10-2017 10:00, Menor que la Mínima 13.5 31-10-2017 12:00 6.7 -- 13.5 2017-10-31 12:22:00
2 2017-11-01 12:00:00 Temperatura 6.7 del 01-11-2017 10:00, Menor que la Mínima 14.9 01-11-2017 12:00 6.7 -- 14.9 2017-11-01 12:22:00
2 2017-11-02 12:00:00 Temperatura 10.7 del 02-11-2017 08:00, Menor que la Mínima 14.2 02-11-2017 12:00 10.7 -- 14.2 2017-11-02 12:22:00
2 2017-11-03 12:00:00 Temperatura 11.2 del 03-11-2017 10:00, Menor que la Mínima 13.2 03-11-2017 12:00 11.2 -- 13.2 2017-11-03 12:22:00
2 2017-11-04 12:00:00 Temperatura 10.5 del 04-11-2017 04:00, Menor que la Mínima 14.0 04-11-2017 12:00 10.5 -- 14.0 2017-11-04 12:22:00
2 2017-11-05 12:00:00 Temperatura 8.3 del 05-11-2017 10:00, Menor que la Mínima 14.2 05-11-2017 12:00 8.3 -- 14.2 2017-11-05 12:22:00
2 2017-11-06 12:00:00 Temperatura 9.6 del 06-11-2017 10:00, Menor que la Mínima 17.4 06-11-2017 12:00 9.6 -- 17.4 2017-11-06 12:22:00
2 2017-11-07 12:00:00 Temperatura 10.6 del 07-11-2017 10:00, Menor que la Mínima 17.1 07-11-2017 12:00 10.6 -- 17.1 2017-11-07 12:22:00
2 2017-11-08 12:00:00 Temperatura 14.1 del 08-11-2017 04:00, Menor que la Mínima 15.3 08-11-2017 12:00 14.1 -- 15.3 2017-11-08 12:22:00
2 2017-11-09 12:00:00 Temperatura 10.8 del 09-11-2017 10:00, Menor que la Mínima 16.6 09-11-2017 12:00 10.8 -- 16.6 2017-11-09 12:22:00
2 2017-11-10 12:00:00 Temperatura 12.4 del 10-11-2017 09:00, Menor que la Mínima 19.4 10-11-2017 12:00 12.4 -- 19.4 2017-11-10 12:22:00
2 2017-11-11 12:00:00 Temperatura 10.4 del 11-11-2017 10:00, Menor que la Mínima 21.2 11-11-2017 12:00 10.4 -- 21.2 2017-11-11 12:22:00
2 2017-11-12 12:00:00 Temperatura 9.9 del 12-11-2017 10:00, Menor que la Mínima 14.2 12-11-2017 12:00 9.9 -- 14.2 2017-11-12 12:22:00
2 2017-11-13 12:00:00 Temperatura 10.5 del 13-11-2017 10:00, Menor que la Mínima 14.8 13-11-2017 12:00 10.5 -- 14.8 2017-11-13 12:22:00
2 2017-11-14 12:00:00 Temperatura 10.7 del 14-11-2017 10:00, Menor que la Mínima 13.8 14-11-2017 12:00 10.7 -- 13.8 2017-11-14 12:22:00
2 2017-11-15 12:00:00 Temperatura 11.1 del 15-11-2017 10:00, Menor que la Mínima 13.8 15-11-2017 12:00 11.1 -- 13.8 2017-11-15 12:22:00
2 2017-11-16 12:00:00 Temperatura 10.7 del 16-11-2017 10:00, Menor que la Mínima 12.9 16-11-2017 12:00 10.7 -- 12.9 2017-11-16 12:22:00
2 2017-11-17 12:00:00 Temperatura 9.7 del 17-11-2017 09:00, Menor que la Mínima 17.4 17-11-2017 12:00 9.7 -- 17.4 2017-11-17 12:22:00
2 2017-11-18 12:00:00 Temperatura 9.7 del 18-11-2017 09:00, Menor que la Mínima 16.4 18-11-2017 12:00 9.7 -- 16.4 2017-11-18 12:22:00
2 2017-11-19 12:00:00 Temperatura 9.6 del 19-11-2017 10:00, Menor que la Mínima 14.9 19-11-2017 12:00 9.6 -- 14.9 2017-11-19 12:22:00
2 2017-11-20 12:00:00 Temperatura 10.4 del 20-11-2017 10:00, Menor que la Mínima 17.4 20-11-2017 12:00 10.4 -- 17.4 2017-11-20 12:22:00
2 2017-11-21 12:00:00 Temperatura 9.3 del 21-11-2017 10:00, Menor que la Mínima 18.7 21-11-2017 12:00 9.3 -- 18.7 2017-11-21 12:22:00
2 2017-11-22 12:00:00 Temperatura 9.9 del 22-11-2017 10:00, Menor que la Mínima 18.1 22-11-2017 12:00 9.9 -- 18.1 2017-11-22 12:22:00
2 2017-11-23 12:00:00 Temperatura 10.0 del 23-11-2017 10:00, Menor que la Mínima 20.3 23-11-2017 12:00 10.0 -- 20.3 2017-11-23 12:22:00
2 2017-11-24 12:00:00 Temperatura 11.2 del 24-11-2017 05:00, Menor que la Mínima 15.8 24-11-2017 12:00 11.2 -- 15.8 2017-11-24 12:22:00
2 2017-11-25 12:00:00 Temperatura 8.8 del 25-11-2017 10:00, Menor que la Mínima 12.7 25-11-2017 12:00 8.8 -- 12.7 2017-11-25 12:22:00
2 2017-11-26 12:00:00 Temperatura 9.7 del 26-11-2017 10:00, Menor que la Mínima 16.6 26-11-2017 12:00 9.7 -- 16.6 2017-11-26 12:22:00
2 2017-11-27 12:00:00 Temperatura 8.6 del 27-11-2017 10:00, Menor que la Mínima 12.0 27-11-2017 12:00 8.6 -- 12.0 2017-11-27 12:22:00
2 2017-11-28 12:00:00 Temperatura 9.7 del 28-11-2017 08:00, Menor que la Mínima 14.8 28-11-2017 12:00 9.7 -- 14.8 2017-11-28 12:22:00
2 2017-11-29 12:00:00 Temperatura 10.3 del 29-11-2017 06:00, Menor que la Mínima 11.7 29-11-2017 12:00 10.3 -- 11.7 2017-11-29 12:22:00
2 2017-11-30 12:00:00 Temperatura 10.2 del 30-11-2017 10:00, Menor que la Mínima 14.1 30-11-2017 12:00 10.2 -- 14.1 2017-11-30 12:22:00
2 2017-12-01 12:00:00 Temperatura 10.3 del 01-12-2017 08:00, Menor que la Mínima 15.8 01-12-2017 12:00 10.3 -- 15.8 2017-12-01 12:22:00
2 2017-12-02 12:00:00 Temperatura 11.0 del 02-12-2017 07:00, Menor que la Mínima 13.2 02-12-2017 12:00 11.0 -- 13.2 2017-12-02 12:22:00
2 2017-12-03 12:00:00 Temperatura 7.9 del 03-12-2017 10:00, Menor que la Mínima 12.8 03-12-2017 12:00 7.9 -- 12.8 2017-12-03 12:22:00
2 2017-12-04 12:00:00 Temperatura 10.0 del 04-12-2017 10:00, Menor que la Mínima 15.0 04-12-2017 12:00 10.0 -- 15.0 2017-12-04 12:22:00
2 2017-12-05 12:00:00 Temperatura 9.6 del 05-12-2017 10:00, Menor que la Mínima 16.4 05-12-2017 12:00 9.6 -- 16.4 2017-12-05 12:22:00
2 2017-12-06 12:00:00 Temperatura 9.1 del 06-12-2017 10:00, Menor que la Mínima 14.9 06-12-2017 12:00 9.1 -- 14.9 2017-12-06 12:22:00
2 2017-12-07 12:00:00 Temperatura 9.4 del 07-12-2017 10:00, Menor que la Mínima 16.2 07-12-2017 12:00 9.4 -- 16.2 2017-12-07 12:22:00
2 2017-12-08 12:00:00 Temperatura 10.4 del 08-12-2017 10:00, Menor que la Mínima 14.7 08-12-2017 12:00 10.4 -- 14.7 2017-12-08 12:22:00
2 2017-12-09 12:00:00 Temperatura 11.2 del 09-12-2017 09:00, Menor que la Mínima 14.2 09-12-2017 12:00 11.2 -- 14.2 2017-12-09 12:22:00
2 2017-12-10 12:00:00 Temperatura 11.2 del 10-12-2017 10:00, Menor que la Mínima 18.9 10-12-2017 12:00 11.2 -- 18.9 2017-12-10 12:22:00
2 2017-12-11 12:00:00 Temperatura 11.6 del 11-12-2017 08:00, Menor que la Mínima 13.9 11-12-2017 12:00 11.6 -- 13.9 2017-12-11 12:22:00
2 2017-12-12 12:00:00 Temperatura 11.4 del 12-12-2017 09:00, Menor que la Mínima 14.3 12-12-2017 12:00 11.4 -- 14.3 2017-12-12 12:22:00
2 2017-12-13 12:00:00 Temperatura 10.1 del 13-12-2017 10:00, Menor que la Mínima 13.3 13-12-2017 12:00 10.1 -- 13.3 2017-12-13 12:22:00
2 2017-12-14 12:00:00 Temperatura 11.8 del 14-12-2017 10:00, Menor que la Mínima 15.9 14-12-2017 12:00 11.8 -- 15.9 2017-12-14 12:22:00
2 2017-12-15 12:00:00 Temperatura 12.8 del 15-12-2017 10:00, Menor que la Mínima 20.4 15-12-2017 12:00 12.8 -- 20.4 2017-12-15 12:22:00
2 2017-12-16 12:00:00 Temperatura 12.2 del 16-12-2017 10:00, Menor que la Mínima 16.3 16-12-2017 12:00 12.2 -- 16.3 2017-12-16 12:22:00
2 2017-12-17 12:00:00 Temperatura 12.6 del 17-12-2017 10:00, Menor que la Mínima 16.5 17-12-2017 12:00 12.6 -- 16.5 2017-12-17 12:22:00
2 2017-12-18 12:00:00 Temperatura 13.2 del 18-12-2017 09:00, Menor que la Mínima 17.3 18-12-2017 12:00 13.2 -- 17.3 2017-12-18 12:22:00
2 2017-12-19 12:00:00 Temperatura 12.8 del 19-12-2017 10:00, Menor que la Mínima 15.4 19-12-2017 12:00 12.8 -- 15.4 2017-12-19 12:22:00
2 2017-12-20 12:00:00 Temperatura 12.3 del 20-12-2017 10:00, Menor que la Mínima 19.3 20-12-2017 12:00 12.3 -- 19.3 2017-12-20 12:22:00
2 2017-12-21 12:00:00 Temperatura 12.7 del 21-12-2017 10:00, Menor que la Mínima 16.5 21-12-2017 12:00 12.7 -- 16.5 2017-12-21 12:22:00
2 2017-12-22 12:00:00 Temperatura 12.4 del 22-12-2017 10:00, Menor que la Mínima 16.9 22-12-2017 12:00 12.4 -- 16.9 2017-12-22 12:22:00
2 2017-12-23 12:00:00 Temperatura 12.4 del 23-12-2017 10:00, Menor que la Mínima 16.4 23-12-2017 12:00 12.4 -- 16.4 2017-12-23 12:22:00
2 2017-12-24 12:00:00 Temperatura 12.3 del 24-12-2017 09:00, Menor que la Mínima 18.8 24-12-2017 12:00 12.3 -- 18.8 2017-12-24 12:22:00
2 2017-12-25 12:00:00 Temperatura 12.0 del 25-12-2017 10:00, Menor que la Mínima 17.6 25-12-2017 12:00 12.0 -- 17.6 2017-12-25 12:22:00
2 2017-12-26 12:00:00 Temperatura 11.2 del 26-12-2017 10:00, Menor que la Mínima 18.7 26-12-2017 12:00 11.2 -- 18.7 2017-12-26 12:22:00
2 2017-12-27 12:00:00 Temperatura 11.5 del 27-12-2017 10:00, Menor que la Mínima 15.5 27-12-2017 12:00 11.5 -- 15.5 2017-12-27 12:22:00
2 2017-12-28 12:00:00 Temperatura 12.7 del 28-12-2017 10:00, Menor que la Mínima 16.5 28-12-2017 12:00 12.7 -- 16.5 2017-12-28 12:22:00
2 2017-12-29 12:00:00 Temperatura 12.6 del 29-12-2017 10:00, Menor que la Mínima 17.6 29-12-2017 12:00 12.6 -- 17.6 2017-12-29 12:22:00
2 2017-12-30 12:00:00 Temperatura 14.0 del 30-12-2017 10:00, Menor que la Mínima 18.0 30-12-2017 12:00 14.0 -- 18.0 2017-12-30 12:22:00
2 2017-12-31 12:00:00 Temperatura 13.5 del 31-12-2017 10:00, Menor que la Mínima 17.7 31-12-2017 12:00 13.5 -- 17.7 2017-12-31 12:22:00
2 2018-01-01 12:00:00 Temperatura 12.6 del 01-01-2018 10:00, Menor que la Mínima 17.3 01-01-2018 12:00 12.6 -- 17.3 2018-01-01 12:22:00
2 2018-01-01 12:00:00 Temperatura 12.6 del 01-01-2018 10:00, Menor que la Mínima 17.3 01-01-2018 12:00 12.6 -- 17.3 2018-01-01 12:22:00
2 2018-01-02 12:00:00 Temperatura 13.1 del 02-01-2018 10:00, Menor que la Mínima 14.7 02-01-2018 12:00 13.1 -- 14.7 2018-01-02 12:22:00
2 2018-01-03 12:00:00 Temperatura 13.4 del 03-01-2018 10:00, Menor que la Mínima 18.7 03-01-2018 12:00 13.4 -- 18.7 2018-01-03 12:22:00
2 2018-01-04 12:00:00 Temperatura 13.5 del 04-01-2018 10:00, Menor que la Mínima 20.2 04-01-2018 12:00 13.5 -- 20.2 2018-01-04 12:22:00
2 2018-01-05 12:00:00 Temperatura 13.6 del 05-01-2018 10:00, Menor que la Mínima 20.6 05-01-2018 12:00 13.6 -- 20.6 2018-01-05 13:22:00
2 2018-01-06 12:00:00 Temperatura 13.6 del 06-01-2018 10:00, Menor que la Mínima 20.3 06-01-2018 12:00 13.6 -- 20.3 2018-01-06 12:22:00
2 2018-01-07 12:00:00 Temperatura 13.3 del 07-01-2018 10:00, Menor que la Mínima 18.6 07-01-2018 12:00 13.3 -- 18.6 2018-01-07 12:22:00
2 2018-01-08 12:00:00 Temperatura 13.0 del 08-01-2018 10:00, Menor que la Mínima 14.4 08-01-2018 12:00 13.0 -- 14.4 2018-01-08 12:22:00
2 2018-01-09 12:00:00 Temperatura 13.4 del 09-01-2018 10:00, Menor que la Mínima 17.2 09-01-2018 12:00 13.4 -- 17.2 2018-01-09 12:22:00
2 2018-01-10 12:00:00 Temperatura 13.2 del 10-01-2018 10:00, Menor que la Mínima 17.2 10-01-2018 12:00 13.2 -- 17.2 2018-01-10 12:22:00
2 2018-01-11 12:00:00 Temperatura 13.6 del 11-01-2018 10:00, Menor que la Mínima 16.7 11-01-2018 12:00 13.6 -- 16.7 2018-01-11 12:22:00
2 2018-01-12 12:00:00 Temperatura 14.3 del 12-01-2018 09:00, Menor que la Mínima 15.6 12-01-2018 12:00 14.3 -- 15.6 2018-01-12 12:22:00
2 2018-01-13 12:00:00 Temperatura 14.7 del 13-01-2018 10:00, Menor que la Mínima 16.7 13-01-2018 12:00 14.7 -- 16.7 2018-01-13 12:22:00
2 2018-01-14 12:00:00 Temperatura 13.9 del 14-01-2018 08:00, Menor que la Mínima 16.7 14-01-2018 12:00 13.9 -- 16.7 2018-01-14 12:22:00
2 2018-01-15 12:00:00 Temperatura 12.0 del 15-01-2018 10:00, Menor que la Mínima 15.3 15-01-2018 12:00 12.0 -- 15.3 2018-01-15 12:22:00
2 2018-01-16 12:00:00 Temperatura 10.7 del 16-01-2018 10:00, Menor que la Mínima 15.1 16-01-2018 12:00 10.7 -- 15.1 2018-01-16 12:22:00
2 2018-01-17 12:00:00 Temperatura 12.0 del 17-01-2018 10:00, Menor que la Mínima 15.7 17-01-2018 12:00 12.0 -- 15.7 2018-01-17 12:22:00
2 2018-01-18 12:00:00 Temperatura 12.8 del 18-01-2018 10:00, Menor que la Mínima 18.1 18-01-2018 12:00 12.8 -- 18.1 2018-01-18 12:22:00
2 2018-01-19 12:00:00 Temperatura 13.2 del 19-01-2018 09:00, Menor que la Mínima 18.2 19-01-2018 12:00 13.2 -- 18.2 2018-01-19 12:22:00
2 2018-01-20 12:00:00 Temperatura 13.3 del 20-01-2018 07:00, Menor que la Mínima 14.2 20-01-2018 12:00 13.3 -- 14.2 2018-01-20 12:22:00
2 2018-01-21 12:00:00 Temperatura 11.7 del 21-01-2018 10:00, Menor que la Mínima 13.6 21-01-2018 12:00 11.7 -- 13.6 2018-01-21 12:22:00
2 2018-01-22 12:00:00 Temperatura 11.4 del 22-01-2018 10:00, Menor que la Mínima 15.0 22-01-2018 12:00 11.4 -- 15.0 2018-01-22 12:22:00
2 2018-01-23 12:00:00 Temperatura 11.9 del 23-01-2018 10:00, Menor que la Mínima 16.3 23-01-2018 12:00 11.9 -- 16.3 2018-01-23 12:22:00
2 2018-01-24 12:00:00 Temperatura 12.7 del 24-01-2018 10:00, Menor que la Mínima 16.1 24-01-2018 12:00 12.7 -- 16.1 2018-01-24 12:22:00
2 2018-01-25 12:00:00 Temperatura 12.2 del 25-01-2018 10:00, Menor que la Mínima 17.5 25-01-2018 12:00 12.2 -- 17.5 2018-01-25 12:22:00
2 2018-01-26 12:00:00 Temperatura 11.3 del 26-01-2018 11:00, Menor que la Mínima 16.2 26-01-2018 12:00 11.3 -- 16.2 2018-01-26 12:22:00
2 2018-01-27 12:00:00 Temperatura 12.1 del 27-01-2018 10:00, Menor que la Mínima 13.0 27-01-2018 12:00 12.1 -- 13.0 2018-01-27 12:22:00
2 2018-01-28 12:00:00 Temperatura 13.4 del 28-01-2018 10:00, Menor que la Mínima 17.1 28-01-2018 12:00 13.4 -- 17.1 2018-01-28 12:22:00
2 2018-01-29 12:00:00 Temperatura 13.1 del 29-01-2018 10:00, Menor que la Mínima 18.6 29-01-2018 12:00 13.1 -- 18.6 2018-01-29 12:22:00
2 2018-01-30 12:00:00 Temperatura 12.3 del 30-01-2018 10:00, Menor que la Mínima 15.4 30-01-2018 12:00 12.3 -- 15.4 2018-01-30 12:22:00
2 2018-01-31 12:00:00 Temperatura 11.9 del 31-01-2018 10:00, Menor que la Mínima 13.3 31-01-2018 12:00 11.9 -- 13.3 2018-01-31 12:22:00
2 2018-02-01 12:00:00 Temperatura 13.0 del 01-02-2018 10:00, Menor que la Mínima 16.9 01-02-2018 12:00 13.0 -- 16.9 2018-02-01 12:22:00
2 2018-02-02 12:00:00 Temperatura 12.8 del 02-02-2018 10:00, Menor que la Mínima 14.3 02-02-2018 12:00 12.8 -- 14.3 2018-02-02 12:22:00
2 2018-02-03 12:00:00 Temperatura 13.3 del 03-02-2018 10:00, Menor que la Mínima 14.5 03-02-2018 12:00 13.3 -- 14.5 2018-02-03 12:22:00
2 2018-02-04 12:00:00 Temperatura 13.6 del 04-02-2018 10:00, Menor que la Mínima 16.5 04-02-2018 12:00 13.6 -- 16.5 2018-02-04 12:22:00
2 2018-02-05 12:00:00 Temperatura 14.7 del 05-02-2018 10:00, Menor que la Mínima 16.5 05-02-2018 12:00 14.7 -- 16.5 2018-02-05 12:22:00
2 2018-02-06 12:00:00 Temperatura 15.8 del 06-02-2018 11:00, Menor que la Mínima 18.4 06-02-2018 12:00 15.8 -- 18.4 2018-02-06 12:22:00
2 2018-02-07 12:00:00 Temperatura 14.2 del 07-02-2018 08:00, Menor que la Mínima 18.6 07-02-2018 12:00 14.2 -- 18.6 2018-02-07 12:22:00
2 2018-02-08 12:00:00 Temperatura 14.0 del 08-02-2018 10:00, Menor que la Mínima 14.7 08-02-2018 12:00 14.0 -- 14.7 2018-02-08 12:22:00
2 2018-02-09 12:00:00 Temperatura 14.3 del 09-02-2018 10:00, Menor que la Mínima 17.9 09-02-2018 12:00 14.3 -- 17.9 2018-02-09 12:22:00
2 2018-02-10 12:00:00 Temperatura 14.6 del 10-02-2018 11:00, Menor que la Mínima 18.0 10-02-2018 12:00 14.6 -- 18.0 2018-02-10 12:22:00
2 2018-02-11 12:00:00 Temperatura 14.7 del 11-02-2018 11:00, Menor que la Mínima 19.7 11-02-2018 12:00 14.7 -- 19.7 2018-02-11 12:22:00
2 2018-02-12 12:00:00 Temperatura 13.4 del 12-02-2018 10:00, Menor que la Mínima 18.7 12-02-2018 12:00 13.4 -- 18.7 2018-02-12 12:22:00
2 2018-02-13 12:00:00 Temperatura 13.0 del 13-02-2018 11:00, Menor que la Mínima 17.9 13-02-2018 12:00 13.0 -- 17.9 2018-02-13 12:22:00
2 2018-02-14 12:00:00 Temperatura 13.1 del 14-02-2018 10:00, Menor que la Mínima 13.8 14-02-2018 12:00 13.1 -- 13.8 2018-02-14 12:22:00
2 2018-02-15 12:00:00 Temperatura 13.4 del 15-02-2018 10:00, Menor que la Mínima 15.9 15-02-2018 12:00 13.4 -- 15.9 2018-02-15 12:22:00
2 2018-02-16 12:00:00 Temperatura 13.4 del 16-02-2018 10:00, Menor que la Mínima 15.9 16-02-2018 12:00 13.4 -- 15.9 2018-02-16 12:22:00
2 2018-02-17 12:00:00 Temperatura 12.5 del 17-02-2018 11:00, Menor que la Mínima 15.2 17-02-2018 12:00 12.5 -- 15.2 2018-02-17 12:22:00
2 2018-02-18 12:00:00 Temperatura 12.8 del 18-02-2018 10:00, Menor que la Mínima 14.9 18-02-2018 12:00 12.8 -- 14.9 2018-02-18 12:22:00
2 2018-02-19 12:00:00 Temperatura 12.9 del 19-02-2018 10:00, Menor que la Mínima 15.4 19-02-2018 12:00 12.9 -- 15.4 2018-02-19 12:22:00
2 2018-02-20 12:00:00 Temperatura 13.6 del 20-02-2018 11:00, Menor que la Mínima 16.1 20-02-2018 12:00 13.6 -- 16.1 2018-02-20 12:22:00
2 2018-02-21 12:00:00 Temperatura 13.8 del 21-02-2018 10:00, Menor que la Mínima 17.0 21-02-2018 12:00 13.8 -- 17.0 2018-02-21 12:22:00
2 2018-02-22 12:00:00 Temperatura 13.1 del 22-02-2018 11:00, Menor que la Mínima 18.6 22-02-2018 12:00 13.1 -- 18.6 2018-02-22 12:22:00
2 2018-02-23 12:00:00 Temperatura 13.1 del 23-02-2018 10:00, Menor que la Mínima 16.9 23-02-2018 12:00 13.1 -- 16.9 2018-02-23 12:22:00
2 2018-02-24 12:00:00 Temperatura 13.0 del 24-02-2018 09:00, Menor que la Mínima 16.7 24-02-2018 12:00 13.0 -- 16.7 2018-02-24 12:22:00
2 2018-02-25 12:00:00 Temperatura 12.2 del 25-02-2018 11:00, Menor que la Mínima 13.7 25-02-2018 12:00 12.2 -- 13.7 2018-02-25 12:22:00
2 2018-02-26 12:00:00 Temperatura 12.0 del 26-02-2018 11:00, Menor que la Mínima 13.9 26-02-2018 12:00 12.0 -- 13.9 2018-02-26 12:22:00
2 2018-02-27 12:00:00 Temperatura 11.2 del 27-02-2018 09:00, Menor que la Mínima 15.2 27-02-2018 12:00 11.2 -- 15.2 2018-02-27 12:22:00
2 2018-02-28 12:00:00 Temperatura 10.7 del 28-02-2018 11:00, Menor que la Mínima 13.9 28-02-2018 12:00 10.7 -- 13.9 2018-02-28 12:22:00
2 2018-03-01 12:00:00 Temperatura 11.7 del 01-03-2018 11:00, Menor que la Mínima 14.8 01-03-2018 12:00 11.7 -- 14.8 2018-03-01 12:22:00
2 2018-03-02 12:00:00 Temperatura 11.8 del 02-03-2018 11:00, Menor que la Mínima 16.2 02-03-2018 12:00 11.8 -- 16.2 2018-03-02 12:22:00
2 2018-03-03 12:00:00 Temperatura 12.6 del 03-03-2018 08:00, Menor que la Mínima 16.2 03-03-2018 12:00 12.6 -- 16.2 2018-03-03 12:22:00
2 2018-03-04 12:00:00 Temperatura 10.7 del 04-03-2018 11:00, Menor que la Mínima 13.0 04-03-2018 12:00 10.7 -- 13.0 2018-03-04 12:22:00
2 2018-03-05 12:00:00 Temperatura 11.8 del 05-03-2018 10:00, Menor que la Mínima 14.8 05-03-2018 12:00 11.8 -- 14.8 2018-03-05 12:22:00
2 2018-03-06 12:00:00 Temperatura 11.6 del 06-03-2018 10:00, Menor que la Mínima 15.7 06-03-2018 12:00 11.6 -- 15.7 2018-03-06 12:22:00
2 2018-03-07 12:00:00 Temperatura 11.6 del 07-03-2018 10:00, Menor que la Mínima 13.5 07-03-2018 12:00 11.6 -- 13.5 2018-03-07 12:22:00
2 2018-03-08 12:00:00 Temperatura 11.4 del 08-03-2018 11:00, Menor que la Mínima 14.6 08-03-2018 12:00 11.4 -- 14.6 2018-03-08 12:22:00
2 2018-03-09 12:00:00 Temperatura 12.0 del 09-03-2018 11:00, Menor que la Mínima 14.8 09-03-2018 12:00 12.0 -- 14.8 2018-03-09 12:22:00
2 2018-03-10 12:00:00 Temperatura 11.0 del 10-03-2018 11:00, Menor que la Mínima 15.9 10-03-2018 12:00 11.0 -- 15.9 2018-03-10 12:22:00
2 2018-03-11 12:00:00 Temperatura 11.7 del 11-03-2018 10:00, Menor que la Mínima 14.4 11-03-2018 12:00 11.7 -- 14.4 2018-03-11 12:22:00
2 2018-03-12 12:00:00 Temperatura 10.4 del 12-03-2018 11:00, Menor que la Mínima 15.9 12-03-2018 12:00 10.4 -- 15.9 2018-03-12 12:22:00
2 2018-03-13 12:00:00 Temperatura 11.2 del 13-03-2018 11:00, Menor que la Mínima 14.9 13-03-2018 12:00 11.2 -- 14.9 2018-03-13 12:22:00
2 2018-03-14 12:00:00 Temperatura 11.3 del 14-03-2018 11:00, Menor que la Mínima 15.1 14-03-2018 12:00 11.3 -- 15.1 2018-03-14 12:22:00
2 2018-03-15 12:00:00 Temperatura 11.1 del 15-03-2018 11:00, Menor que la Mínima 15.8 15-03-2018 12:00 11.1 -- 15.8 2018-03-15 12:22:00
2 2018-03-16 12:00:00 Temperatura 10.8 del 16-03-2018 10:00, Menor que la Mínima 15.8 16-03-2018 12:00 10.8 -- 15.8 2018-03-16 12:22:00
2 2018-03-17 12:00:00 Temperatura 9.9 del 17-03-2018 10:00, Menor que la Mínima 14.3 17-03-2018 12:00 9.9 -- 14.3 2018-03-17 12:22:00
2 2018-03-18 12:00:00 Temperatura 9.2 del 18-03-2018 11:00, Menor que la Mínima 13.1 18-03-2018 12:00 9.2 -- 13.1 2018-03-18 12:22:00
2 2018-03-19 12:00:00 Temperatura 8.7 del 19-03-2018 11:00, Menor que la Mínima 13.2 19-03-2018 12:00 8.7 -- 13.2 2018-03-19 12:22:00
2 2018-03-20 12:00:00 Temperatura 8.9 del 20-03-2018 10:00, Menor que la Mínima 12.9 20-03-2018 12:00 8.9 -- 12.9 2018-03-20 12:22:00
2 2018-03-21 12:00:00 Temperatura 8.8 del 21-03-2018 11:00, Menor que la Mínima 12.2 21-03-2018 12:00 8.8 -- 12.2 2018-03-21 12:22:00
2 2018-03-22 12:00:00 Temperatura 9.9 del 22-03-2018 11:00, Menor que la Mínima 13.0 22-03-2018 12:00 9.9 -- 13.0 2018-03-22 12:22:00
2 2018-03-23 12:00:00 Temperatura 10.1 del 23-03-2018 11:00, Menor que la Mínima 12.7 23-03-2018 12:00 10.1 -- 12.7 2018-03-23 12:22:00
2 2018-03-24 12:00:00 Temperatura 9.4 del 24-03-2018 11:00, Menor que la Mínima 14.2 24-03-2018 12:00 9.4 -- 14.2 2018-03-24 12:22:00
2 2018-03-25 12:00:00 Temperatura 9.9 del 25-03-2018 11:00, Menor que la Mínima 13.7 25-03-2018 12:00 9.9 -- 13.7 2018-03-25 12:22:00
2 2018-03-26 12:00:00 Temperatura 9.6 del 26-03-2018 11:00, Menor que la Mínima 14.3 26-03-2018 12:00 9.6 -- 14.3 2018-03-26 12:22:00
2 2018-03-27 12:00:00 Temperatura 9.3 del 27-03-2018 11:00, Menor que la Mínima 13.6 27-03-2018 12:00 9.3 -- 13.6 2018-03-27 12:22:00
2 2018-03-28 12:00:00 Temperatura 8.8 del 28-03-2018 10:00, Menor que la Mínima 13.5 28-03-2018 12:00 8.8 -- 13.5 2018-03-28 12:22:00
2 2018-03-29 12:00:00 Temperatura 9.2 del 29-03-2018 10:00, Menor que la Mínima 9.4 29-03-2018 12:00 9.2 -- 9.4 2018-03-29 12:22:00
2 2018-03-30 12:00:00 Temperatura 10.4 del 30-03-2018 11:00, Menor que la Mínima 12.2 30-03-2018 12:00 10.4 -- 12.2 2018-03-30 12:22:00
2 2018-03-31 12:00:00 Temperatura 9.8 del 31-03-2018 10:00, Menor que la Mínima 13.8 31-03-2018 12:00 9.8 -- 13.8 2018-03-31 12:22:00
2 2018-04-01 12:00:00 Temperatura 10.2 del 01-04-2018 11:00, Menor que la Mínima 11.0 01-04-2018 12:00 10.2 -- 11.0 2018-04-01 12:22:00
2 2018-04-02 12:00:00 Temperatura 9.7 del 02-04-2018 11:00, Menor que la Mínima 10.7 02-04-2018 12:00 9.7 -- 10.7 2018-04-02 12:22:00
2 2018-04-03 12:00:00 Temperatura 8.3 del 03-04-2018 11:00, Menor que la Mínima 10.0 03-04-2018 12:00 8.3 -- 10.0 2018-04-03 12:22:00
2 2018-04-04 12:00:00 Temperatura 8.6 del 04-04-2018 11:00, Menor que la Mínima 11.2 04-04-2018 12:00 8.6 -- 11.2 2018-04-04 12:22:00
2 2018-04-05 12:00:00 Temperatura 8.5 del 05-04-2018 11:00, Menor que la Mínima 11.5 05-04-2018 12:00 8.5 -- 11.5 2018-04-05 12:22:00
2 2018-04-07 12:00:00 Temperatura 8.0 del 07-04-2018 11:00, Menor que la Mínima 11.5 07-04-2018 12:00 8.0 -- 11.5 2018-04-07 12:22:00
2 2018-04-08 12:00:00 Temperatura 7.6 del 08-04-2018 11:00, Menor que la Mínima 10.6 08-04-2018 12:00 7.6 -- 10.6 2018-04-08 12:22:00
2 2018-04-10 12:00:00 Temperatura 10.6 del 10-04-2018 06:00, Menor que la Mínima 11.3 10-04-2018 12:00 10.6 -- 11.3 2018-04-10 12:22:00
2 2018-04-11 12:00:00 Temperatura 10.3 del 11-04-2018 11:00, Menor que la Mínima 11.6 11-04-2018 12:00 10.3 -- 11.6 2018-04-11 12:22:00
2 2018-04-12 12:00:00 Temperatura 10.1 del 12-04-2018 10:00, Menor que la Mínima 11.9 12-04-2018 12:00 10.1 -- 11.9 2018-04-12 12:22:00
2 2018-04-13 12:00:00 Temperatura 9.7 del 13-04-2018 11:00, Menor que la Mínima 12.0 13-04-2018 12:00 9.7 -- 12.0 2018-04-13 12:22:00
2 2018-04-14 12:00:00 Temperatura 7.9 del 14-04-2018 11:00, Menor que la Mínima 12.4 14-04-2018 12:00 7.9 -- 12.4 2018-04-14 12:37:00
2 2018-04-15 12:00:00 Temperatura 7.4 del 15-04-2018 11:00, Menor que la Mínima 10.1 15-04-2018 12:00 7.4 -- 10.1 2018-04-15 12:37:00
2 2018-04-17 12:00:00 Temperatura 8.7 del 17-04-2018 10:00, Menor que la Mínima 10.0 17-04-2018 12:00 8.7 -- 10.0 2018-04-17 12:37:00
2 2018-04-18 12:00:00 Temperatura 8.1 del 18-04-2018 11:00, Menor que la Mínima 10.3 18-04-2018 12:00 8.1 -- 10.3 2018-04-18 12:37:00
2 2018-04-19 12:00:00 Temperatura 8.4 del 19-04-2018 10:00, Menor que la Mínima 10.0 19-04-2018 12:00 8.4 -- 10.0 2018-04-19 12:37:00
2 2018-04-20 12:00:00 Temperatura 7.6 del 20-04-2018 10:00, Menor que la Mínima 9.9 20-04-2018 12:00 7.6 -- 9.9 2018-04-20 12:22:00
2 2018-04-21 12:00:00 Temperatura 7.7 del 21-04-2018 11:00, Menor que la Mínima 9.7 21-04-2018 12:00 7.7 -- 9.7 2018-04-21 12:37:00
2 2018-04-22 12:00:00 Temperatura 7.9 del 22-04-2018 10:00, Menor que la Mínima 9.6 22-04-2018 12:00 7.9 -- 9.6 2018-04-22 12:37:00
2 2018-04-23 12:00:00 Temperatura 8.6 del 23-04-2018 11:00, Menor que la Mínima 9.6 23-04-2018 12:00 8.6 -- 9.6 2018-04-23 12:22:00
2 2018-04-24 12:00:00 Temperatura 9.5 del 24-04-2018 11:00, Menor que la Mínima 10.4 24-04-2018 12:00 9.5 -- 10.4 2018-04-24 12:37:00
2 2018-04-25 12:00:00 Temperatura 7.4 del 25-04-2018 11:00, Menor que la Mínima 10.6 25-04-2018 12:00 7.4 -- 10.6 2018-04-25 12:22:00
2 2018-04-27 12:00:00 Temperatura 10.4 del 27-04-2018 09:00, Menor que la Mínima 13.0 27-04-2018 12:00 10.4 -- 13.0 2018-04-27 12:37:00
2 2018-04-28 12:00:00 Temperatura 10.0 del 28-04-2018 09:00, Menor que la Mínima 12.9 28-04-2018 12:00 10.0 -- 12.9 2018-04-28 12:37:00
2 2018-04-29 12:00:00 Temperatura 8.4 del 29-04-2018 09:00, Menor que la Mínima 11.4 29-04-2018 12:00 8.4 -- 11.4 2018-04-29 12:37:00
2 2018-04-30 12:00:00 Temperatura 8.0 del 30-04-2018 07:00, Menor que la Mínima 10.8 30-04-2018 12:00 8.0 -- 10.8 2018-04-30 12:37:00
2 2018-05-02 12:00:00 Temperatura 7.2 del 02-05-2018 09:00, Menor que la Mínima 9.8 02-05-2018 12:00 7.2 -- 9.8 2018-05-02 12:37:00
2 2018-05-03 12:00:00 Temperatura 5.5 del 03-05-2018 11:00, Menor que la Mínima 8.0 03-05-2018 12:00 5.5 -- 8.0 2018-05-03 12:37:00
2 2018-05-04 12:00:00 Temperatura 5.7 del 04-05-2018 11:00, Menor que la Mínima 7.7 04-05-2018 12:00 5.7 -- 7.7 2018-05-04 12:37:00
2 2018-05-05 12:00:00 Temperatura 5.4 del 05-05-2018 11:00, Menor que la Mínima 6.7 05-05-2018 12:00 5.4 -- 6.7 2018-05-05 12:37:00
2 2018-05-06 12:00:00 Temperatura 5.4 del 06-05-2018 12:00, Menor que la Mínima 5.9 06-05-2018 12:00 5.4 -- 5.9 2018-05-06 12:37:00
2 2018-05-08 12:00:00 Temperatura 5.7 del 08-05-2018 11:00, Menor que la Mínima 6.5 08-05-2018 12:00 5.7 -- 6.5 2018-05-08 12:37:00
2 2018-05-09 12:00:00 Temperatura 5.3 del 09-05-2018 09:00, Menor que la Mínima 5.7 09-05-2018 12:00 5.3 -- 5.7 2018-05-09 12:37:00
2 2018-05-10 12:00:00 Temperatura 4.7 del 10-05-2018 11:00, Menor que la Mínima 5.8 10-05-2018 12:00 4.7 -- 5.8 2018-05-10 12:37:00
2 2018-05-12 12:00:00 Temperatura 5.3 del 12-05-2018 12:00, Menor que la Mínima 14.9 12-05-2018 12:00 5.3 -- 14.9 2018-05-12 12:37:00
2 2018-05-14 12:00:00 Temperatura 5.4 del 14-05-2018 11:00, Menor que la Mínima 8.0 14-05-2018 12:00 5.4 -- 8.0 2018-05-14 12:37:00
2 2018-05-16 12:00:00 Temperatura 4.2 del 16-05-2018 11:00, Menor que la Mínima 7.8 16-05-2018 12:00 4.2 -- 7.8 2018-05-16 12:37:00
2 2018-05-18 12:00:00 Temperatura 3.5 del 18-05-2018 11:00, Menor que la Mínima 6.4 18-05-2018 12:00 3.5 -- 6.4 2018-05-18 12:37:00
2 2018-05-20 12:00:00 Temperatura 3.8 del 20-05-2018 12:00, Menor que la Mínima 13.1 20-05-2018 12:00 3.8 -- 13.1 2018-05-22 15:15:00
2 2018-05-21 12:00:00 Temperatura 3.1 del 21-05-2018 12:00, Menor que la Mínima 3.7 21-05-2018 12:00 3.1 -- 3.7 2018-05-22 15:15:00
2 2018-05-23 12:00:00 Temperatura 3.8 del 23-05-2018 11:00, Menor que la Mínima 3.9 23-05-2018 12:00 3.8 -- 3.9 2018-05-23 12:37:00
2 2018-05-25 12:00:00 Temperatura 3.1 del 25-05-2018 10:00, Menor que la Mínima 4.1 25-05-2018 12:00 3.1 -- 4.1 2018-05-25 12:37:00
2 2018-05-27 12:00:00 Temperatura 2.0 del 27-05-2018 11:00, Menor que la Mínima 2.5 27-05-2018 12:00 2.0 -- 2.5 2018-05-27 12:37:00
2 2018-06-01 12:00:00 Temperatura 6.3 del 01-06-2018 12:00, Menor que la Mínima 10.5 01-06-2018 12:00 6.3 -- 10.5 2018-06-01 12:37:00
2 2018-06-02 12:00:00 Temperatura 1.8 del 02-06-2018 09:00, Menor que la Mínima 6.0 02-06-2018 12:00 1.8 -- 6.0 2018-06-02 12:37:00
2 2018-06-03 12:00:00 Temperatura 1.2 del 03-06-2018 10:00, Menor que la Mínima 1.9 03-06-2018 12:00 1.2 -- 1.9 2018-06-03 12:37:00
2 2018-06-06 12:00:00 Temperatura 7.1 del 06-06-2018 10:00, Menor que la Mínima 8.1 06-06-2018 12:00 7.1 -- 8.1 2018-06-06 12:37:00
2 2018-06-07 12:00:00 Temperatura 5.5 del 07-06-2018 07:00, Menor que la Mínima 7.3 07-06-2018 12:00 5.5 -- 7.3 2018-06-07 12:37:00
2 2018-06-09 12:00:00 Temperatura 6.0 del 09-06-2018 11:00, Menor que la Mínima 12.3 09-06-2018 12:00 6.0 -- 12.3 2018-06-09 12:37:00
2 2018-06-11 12:00:00 Temperatura 2.6 del 11-06-2018 12:00, Menor que la Mínima 8.7 11-06-2018 12:00 2.6 -- 8.7 2018-06-11 12:37:00
2 2018-06-13 12:00:00 Temperatura 1.2 del 13-06-2018 10:00, Menor que la Mínima 6.0 13-06-2018 12:00 1.2 -- 6.0 2018-06-13 12:37:00
2 2018-06-14 12:00:00 Temperatura 1.2 del 14-06-2018 09:00, Menor que la Mínima 1.3 14-06-2018 12:00 1.2 -- 1.3 2018-06-14 12:37:00
2 2018-06-16 12:00:00 Temperatura 8.9 del 16-06-2018 10:00, Menor que la Mínima 14.0 16-06-2018 12:00 8.9 -- 14.0 2018-06-16 12:22:00
2 2018-06-18 12:00:00 Temperatura 9.3 del 18-06-2018 07:00, Menor que la Mínima 12.3 18-06-2018 12:00 9.3 -- 12.3 2018-06-18 12:22:00
2 2018-06-19 12:00:00 Temperatura 5.9 del 19-06-2018 12:00, Menor que la Mínima 8.2 19-06-2018 12:00 5.9 -- 8.2 2018-06-19 12:37:00
2 2018-06-20 12:00:00 Temperatura 4.0 del 20-06-2018 12:00, Menor que la Mínima 5.5 20-06-2018 12:00 4.0 -- 5.5 2018-06-20 12:37:00
2 2018-06-22 12:00:00 Temperatura 4.6 del 22-06-2018 10:00, Menor que la Mínima 5.8 22-06-2018 12:00 4.6 -- 5.8 2018-06-22 12:37:00
2 2018-06-24 12:00:00 Temperatura 3.4 del 24-06-2018 08:00, Menor que la Mínima 7.0 24-06-2018 12:00 3.4 -- 7.0 2018-06-24 12:37:00
2 2018-06-25 12:00:00 Temperatura 1.9 del 25-06-2018 12:00, Menor que la Mínima 5.3 25-06-2018 12:00 1.9 -- 5.3 2018-06-25 12:22:00
2 2018-06-28 12:00:00 Temperatura 5.8 del 28-06-2018 04:00, Menor que la Mínima 9.5 28-06-2018 12:00 5.8 -- 9.5 2018-06-28 12:37:00
2 2018-06-29 12:00:00 Temperatura 1.6 del 29-06-2018 10:00, Menor que la Mínima 7.0 29-06-2018 12:00 1.6 -- 7.0 2018-06-29 12:37:00
2 2018-07-01 12:00:00 Temperatura 2.3 del 01-07-2018 11:00, Menor que la Mínima 5.9 01-07-2018 12:00 2.3 -- 5.9 2018-07-01 12:37:00
2 2018-07-02 12:00:00 Temperatura 1.2 del 02-07-2018 12:00, Menor que la Mínima 2.1 02-07-2018 12:00 1.2 -- 2.1 2018-07-02 12:37:00
2 2018-07-04 12:00:00 Temperatura 3.8 del 04-07-2018 10:00, Menor que la Mínima 9.6 04-07-2018 12:00 3.8 -- 9.6 2018-07-04 12:37:00
2 2018-07-05 12:00:00 Temperatura 2.9 del 05-07-2018 12:00, Menor que la Mínima 3.9 05-07-2018 12:00 2.9 -- 3.9 2018-07-05 23:22:00
2 2018-07-07 12:00:00 Temperatura 4.1 del 07-07-2018 09:00, Menor que la Mínima 6.3 07-07-2018 12:00 4.1 -- 6.3 2018-07-07 12:37:00
2 2018-07-08 12:00:00 Temperatura 3.7 del 08-07-2018 09:00, Menor que la Mínima 5.4 08-07-2018 12:00 3.7 -- 5.4 2018-07-08 12:37:00
2 2018-07-09 12:00:00 Temperatura 2.9 del 09-07-2018 08:00, Menor que la Mínima 3.0 09-07-2018 12:00 2.9 -- 3.0 2018-07-09 12:37:00
2 2018-07-10 12:00:00 Temperatura 5.0 del 10-07-2018 03:00, Menor que la Mínima 5.9 10-07-2018 12:00 5.0 -- 5.9 2018-07-10 12:37:00
2 2018-07-11 12:00:00 Temperatura 2.4 del 11-07-2018 05:00, Menor que la Mínima 4.6 11-07-2018 12:00 2.4 -- 4.6 2018-07-11 12:37:00
2 2018-07-14 12:00:00 Temperatura 2.5 del 14-07-2018 12:00, Menor que la Mínima 7.1 14-07-2018 12:00 2.5 -- 7.1 2018-07-14 12:37:00
2 2018-07-17 12:00:00 Temperatura 6.9 del 17-07-2018 09:00, Menor que la Mínima 8.9 17-07-2018 12:00 6.9 -- 8.9 2018-07-17 12:37:00
2 2018-07-19 12:00:00 Temperatura 3.9 del 19-07-2018 10:00, Menor que la Mínima 8.0 19-07-2018 12:00 3.9 -- 8.0 2018-07-19 12:37:00
2 2018-07-20 12:00:00 Temperatura 0.9 del 20-07-2018 09:00, Menor que la Mínima 4.6 20-07-2018 12:00 0.9 -- 4.6 2018-07-20 12:37:00
2 2018-07-22 12:00:00 Temperatura 3.6 del 22-07-2018 11:00, Menor que la Mínima 5.6 22-07-2018 12:00 3.6 -- 5.6 2018-07-22 12:37:00
2 2018-07-24 12:00:00 Temperatura 2.0 del 24-07-2018 11:00, Menor que la Mínima 4.5 24-07-2018 12:00 2.0 -- 4.5 2018-07-24 12:37:00
2 2018-07-26 12:00:00 Temperatura 3.1 del 26-07-2018 11:00, Menor que la Mínima 5.0 26-07-2018 12:00 3.1 -- 5.0 2018-07-26 12:37:00
2 2018-07-28 12:00:00 Temperatura 1.6 del 28-07-2018 07:00, Menor que la Mínima 6.2 28-07-2018 12:00 1.6 -- 6.2 2018-07-28 12:37:00
2 2018-07-29 12:00:00 Temperatura 0.7 del 29-07-2018 12:00, Menor que la Mínima 3.1 29-07-2018 12:00 0.7 -- 3.1 2018-07-29 12:37:00
2 2018-08-01 12:00:00 Temperatura -0.9 del 01-08-2018 12:00, Menor que la Mínima 3.1 01-08-2018 12:00 -0.9 -- 3.1 2018-08-01 12:37:00
2 2018-08-05 12:00:00 Temperatura 3.0 del 05-08-2018 12:00, Menor que la Mínima 12.3 05-08-2018 12:00 3.0 -- 12.3 2018-08-05 12:37:00
2 2018-08-08 12:00:00 Temperatura 6.0 del 08-08-2018 07:00, Menor que la Mínima 6.8 08-08-2018 12:00 6.0 -- 6.8 2018-08-08 12:37:00
2 2018-08-09 12:00:00 Temperatura 7.6 del 09-08-2018 10:00, Menor que la Mínima 16.9 09-08-2018 12:00 7.6 -- 16.9 2018-08-09 12:37:00
2 2018-08-10 12:00:00 Temperatura 5.7 del 10-08-2018 08:00, Menor que la Mínima 8.9 10-08-2018 12:00 5.7 -- 8.9 2018-08-10 12:37:00
2 2018-08-11 12:00:00 Temperatura 4.9 del 11-08-2018 10:00, Menor que la Mínima 7.5 11-08-2018 12:00 4.9 -- 7.5 2018-08-11 12:37:00
2 2018-08-12 12:00:00 Temperatura 3.1 del 12-08-2018 10:00, Menor que la Mínima 5.6 12-08-2018 12:00 3.1 -- 5.6 2018-08-12 12:37:00
2 2018-08-14 12:00:00 Temperatura 4.5 del 14-08-2018 11:00, Menor que la Mínima 8.0 14-08-2018 12:00 4.5 -- 8.0 2018-08-14 12:37:00
2 2018-08-15 12:00:00 Temperatura 5.0 del 15-08-2018 10:00, Menor que la Mínima 7.4 15-08-2018 12:00 5.0 -- 7.4 2018-08-15 12:37:00
2 2018-08-16 12:00:00 Temperatura 3.0 del 16-08-2018 11:00, Menor que la Mínima 8.3 16-08-2018 12:00 3.0 -- 8.3 2018-08-16 12:37:00
2 2018-08-17 12:00:00 Temperatura 2.9 del 17-08-2018 11:00, Menor que la Mínima 3.2 17-08-2018 12:00 2.9 -- 3.2 2018-08-17 12:22:00
2 2018-08-19 12:00:00 Temperatura 4.4 del 19-08-2018 11:00, Menor que la Mínima 9.2 19-08-2018 12:00 4.4 -- 9.2 2018-08-19 12:22:00
2 2018-08-20 12:00:00 Temperatura 2.4 del 20-08-2018 11:00, Menor que la Mínima 5.2 20-08-2018 12:00 2.4 -- 5.2 2018-08-20 12:22:00
2 2018-08-21 12:00:00 Temperatura 1.1 del 21-08-2018 11:00, Menor que la Mínima 3.8 21-08-2018 12:00 1.1 -- 3.8 2018-08-21 12:22:00
2 2018-08-23 12:00:00 Temperatura 3.1 del 23-08-2018 10:00, Menor que la Mínima 4.2 23-08-2018 12:00 3.1 -- 4.2 2018-08-23 12:22:00
2 2018-08-24 12:00:00 Temperatura 2.3 del 24-08-2018 11:00, Menor que la Mínima 4.4 24-08-2018 12:00 2.3 -- 4.4 2018-08-24 12:22:00
2 2018-08-26 12:00:00 Temperatura 4.6 del 26-08-2018 11:00, Menor que la Mínima 11.8 26-08-2018 12:00 4.6 -- 11.8 2018-08-26 12:22:00
2 2018-08-27 12:00:00 Temperatura 3.8 del 27-08-2018 09:00, Menor que la Mínima 6.6 27-08-2018 12:00 3.8 -- 6.6 2018-08-27 12:22:00
2 2018-08-28 12:00:00 Temperatura 2.8 del 28-08-2018 11:00, Menor que la Mínima 6.4 28-08-2018 12:00 2.8 -- 6.4 2018-08-28 12:22:00
2 2018-08-29 12:00:00 Temperatura 3.9 del 29-08-2018 11:00, Menor que la Mínima 4.3 29-08-2018 12:00 3.9 -- 4.3 2018-08-29 12:22:00
2 2018-08-30 12:00:00 Temperatura 3.9 del 30-08-2018 08:00, Menor que la Mínima 6.2 30-08-2018 12:00 3.9 -- 6.2 2018-08-30 12:22:00
2 2018-08-31 12:00:00 Temperatura 4.6 del 31-08-2018 06:00, Menor que la Mínima 5.9 31-08-2018 12:00 4.6 -- 5.9 2018-08-31 12:22:00
2 2018-09-01 12:00:00 Temperatura 3.7 del 01-09-2018 11:00, Menor que la Mínima 6.7 01-09-2018 12:00 3.7 -- 6.7 2018-09-01 12:22:00
2 2018-09-03 12:00:00 Temperatura 6.1 del 03-09-2018 10:00, Menor que la Mínima 9.0 03-09-2018 12:00 6.1 -- 9.0 2018-09-03 12:22:00
2 2018-09-04 12:00:00 Temperatura 6.9 del 04-09-2018 11:00, Menor que la Mínima 12.2 04-09-2018 12:00 6.9 -- 12.2 2018-09-04 12:37:00
2 2018-09-05 12:00:00 Temperatura 5.5 del 05-09-2018 11:00, Menor que la Mínima 7.7 05-09-2018 12:00 5.5 -- 7.7 2018-09-05 12:37:00
2 2018-09-07 12:00:00 Temperatura 5.8 del 07-09-2018 10:00, Menor que la Mínima 8.7 07-09-2018 12:00 5.8 -- 8.7 2018-09-07 12:37:00
2 2018-09-08 12:00:00 Temperatura 5.1 del 08-09-2018 11:00, Menor que la Mínima 7.4 08-09-2018 12:00 5.1 -- 7.4 2018-09-08 12:22:00
2 2018-09-09 12:00:00 Temperatura 6.0 del 09-09-2018 11:00, Menor que la Mínima 8.7 09-09-2018 12:00 6.0 -- 8.7 2018-09-09 12:37:00
2 2018-09-10 12:00:00 Temperatura 6.3 del 10-09-2018 11:00, Menor que la Mínima 9.9 10-09-2018 12:00 6.3 -- 9.9 2018-09-10 12:37:00
2 2018-09-11 12:00:00 Temperatura 5.5 del 11-09-2018 11:00, Menor que la Mínima 10.9 11-09-2018 12:00 5.5 -- 10.9 2018-09-11 12:37:00
2 2018-09-12 12:00:00 Temperatura 7.3 del 12-09-2018 09:00, Menor que la Mínima 10.1 12-09-2018 12:00 7.3 -- 10.1 2018-09-12 12:37:00
2 2018-09-14 12:00:00 Temperatura 8.0 del 14-09-2018 04:00, Menor que la Mínima 9.0 14-09-2018 12:00 8.0 -- 9.0 2018-09-14 12:37:00
2 2018-09-16 12:00:00 Temperatura 1.8 del 16-09-2018 10:00, Menor que la Mínima 8.4 16-09-2018 12:00 1.8 -- 8.4 2018-09-16 12:37:00
2 2018-09-17 12:00:00 Temperatura 4.9 del 17-09-2018 10:00, Menor que la Mínima 5.9 17-09-2018 12:00 4.9 -- 5.9 2018-09-17 12:37:00
2 2018-09-18 12:00:00 Temperatura 5.8 del 18-09-2018 11:00, Menor que la Mínima 10.0 18-09-2018 12:00 5.8 -- 10.0 2018-09-18 12:37:00
2 2018-09-19 12:00:00 Temperatura 7.1 del 19-09-2018 10:00, Menor que la Mínima 9.2 19-09-2018 12:00 7.1 -- 9.2 2018-09-19 12:37:00
2 2018-09-20 12:00:00 Temperatura 9.8 del 20-09-2018 11:00, Menor que la Mínima 10.1 20-09-2018 12:00 9.8 -- 10.1 2018-09-20 12:37:00
2 2018-09-21 12:00:00 Temperatura 9.7 del 21-09-2018 08:00, Menor que la Mínima 13.3 21-09-2018 12:00 9.7 -- 13.3 2018-09-21 12:37:00
2 2018-09-22 12:00:00 Temperatura 6.9 del 22-09-2018 11:00, Menor que la Mínima 17.6 22-09-2018 12:00 6.9 -- 17.6 2018-09-22 12:37:00
2 2018-09-23 12:00:00 Temperatura 7.1 del 23-09-2018 11:00, Menor que la Mínima 13.2 23-09-2018 12:00 7.1 -- 13.2 2018-09-23 12:37:00
2 2018-09-24 12:00:00 Temperatura 8.2 del 24-09-2018 11:00, Menor que la Mínima 11.8 24-09-2018 12:00 8.2 -- 11.8 2018-09-24 12:37:00
2 2018-09-25 12:00:00 Temperatura 8.9 del 25-09-2018 11:00, Menor que la Mínima 14.1 25-09-2018 12:00 8.9 -- 14.1 2018-09-25 12:37:00
2 2018-09-26 12:00:00 Temperatura 12.6 del 26-09-2018 11:00, Menor que la Mínima 12.9 26-09-2018 12:00 12.6 -- 12.9 2018-09-26 12:37:00
2 2018-09-27 12:00:00 Temperatura 11.4 del 27-09-2018 07:00, Menor que la Mínima 14.6 27-09-2018 12:00 11.4 -- 14.6 2018-09-27 12:37:00
2 2018-09-28 12:00:00 Temperatura 10.1 del 28-09-2018 11:00, Menor que la Mínima 13.8 28-09-2018 12:00 10.1 -- 13.8 2018-09-28 12:37:00
2 2018-09-29 12:00:00 Temperatura 9.5 del 29-09-2018 09:00, Menor que la Mínima 12.3 29-09-2018 12:00 9.5 -- 12.3 2018-09-29 12:37:00
2 2018-09-30 12:00:00 Temperatura 9.3 del 30-09-2018 10:00, Menor que la Mínima 12.7 30-09-2018 12:00 9.3 -- 12.7 2018-09-30 12:37:00
2 2018-10-01 12:00:00 Temperatura 6.3 del 01-10-2018 11:00, Menor que la Mínima 12.7 01-10-2018 12:00 6.3 -- 12.7 2018-10-01 12:37:00
2 2018-10-02 12:00:00 Temperatura 6.3 del 02-10-2018 11:00, Menor que la Mínima 12.5 02-10-2018 12:00 6.3 -- 12.5 2018-10-02 12:22:00
2 2018-10-03 12:00:00 Temperatura 9.6 del 03-10-2018 09:00, Menor que la Mínima 13.5 03-10-2018 12:00 9.6 -- 13.5 2018-10-03 12:22:00
2 2018-10-04 12:00:00 Temperatura 10.6 del 04-10-2018 10:00, Menor que la Mínima 15.2 04-10-2018 12:00 10.6 -- 15.2 2018-10-04 12:22:00
2 2018-10-05 12:00:00 Temperatura 8.3 del 05-10-2018 09:00, Menor que la Mínima 12.9 05-10-2018 12:00 8.3 -- 12.9 2018-10-05 12:22:00
2 2018-10-06 12:00:00 Temperatura 8.6 del 06-10-2018 10:00, Menor que la Mínima 14.7 06-10-2018 12:00 8.6 -- 14.7 2018-10-06 12:22:00
2 2018-10-07 12:00:00 Temperatura 6.3 del 07-10-2018 10:00, Menor que la Mínima 16.4 07-10-2018 12:00 6.3 -- 16.4 2018-10-07 12:22:00
2 2018-10-08 12:00:00 Temperatura 12.1 del 08-10-2018 07:00, Menor que la Mínima 13.2 08-10-2018 12:00 12.1 -- 13.2 2018-10-08 12:22:00
2 2018-10-10 12:00:00 Temperatura 10.5 del 10-10-2018 08:00, Menor que la Mínima 17.8 10-10-2018 12:00 10.5 -- 17.8 2018-10-10 12:22:00
2 2018-10-11 12:00:00 Temperatura 10.5 del 11-10-2018 09:00, Menor que la Mínima 15.1 11-10-2018 12:00 10.5 -- 15.1 2018-10-11 12:22:00
2 2018-10-12 12:00:00 Temperatura 5.7 del 12-10-2018 09:00, Menor que la Mínima 10.4 12-10-2018 12:00 5.7 -- 10.4 2018-10-12 12:22:00
2 2018-10-13 12:00:00 Temperatura 5.5 del 13-10-2018 10:00, Menor que la Mínima 8.7 13-10-2018 12:00 5.5 -- 8.7 2018-10-13 12:22:00
2 2018-10-14 12:00:00 Temperatura 4.4 del 14-10-2018 10:00, Menor que la Mínima 10.1 14-10-2018 12:00 4.4 -- 10.1 2018-10-14 12:22:00
2 2018-10-15 12:00:00 Temperatura 6.8 del 15-10-2018 10:00, Menor que la Mínima 9.8 15-10-2018 12:00 6.8 -- 9.8 2018-10-15 12:22:00
2 2018-10-16 12:00:00 Temperatura 6.0 del 16-10-2018 10:00, Menor que la Mínima 12.0 16-10-2018 12:00 6.0 -- 12.0 2018-10-16 12:22:00
2 2018-10-17 12:00:00 Temperatura 8.4 del 17-10-2018 04:00, Menor que la Mínima 9.3 17-10-2018 12:00 8.4 -- 9.3 2018-10-17 12:22:00
2 2018-10-18 12:00:00 Temperatura 5.7 del 18-10-2018 10:00, Menor que la Mínima 9.0 18-10-2018 12:00 5.7 -- 9.0 2018-10-18 12:22:00
2 2018-10-19 12:00:00 Temperatura 7.7 del 19-10-2018 10:00, Menor que la Mínima 13.7 19-10-2018 12:00 7.7 -- 13.7 2018-10-19 12:22:00
2 2018-10-20 12:00:00 Temperatura 6.8 del 20-10-2018 10:00, Menor que la Mínima 15.9 20-10-2018 12:00 6.8 -- 15.9 2018-10-20 12:22:00
2 2018-10-21 12:00:00 Temperatura 7.8 del 21-10-2018 10:00, Menor que la Mínima 15.0 21-10-2018 12:00 7.8 -- 15.0 2018-10-21 12:22:00
2 2018-10-22 12:00:00 Temperatura 8.1 del 22-10-2018 10:00, Menor que la Mínima 16.1 22-10-2018 12:00 8.1 -- 16.1 2018-10-22 12:22:00
2 2018-10-23 12:00:00 Temperatura 8.5 del 23-10-2018 07:00, Menor que la Mínima 13.1 23-10-2018 12:00 8.5 -- 13.1 2018-10-23 12:22:00
2 2018-10-24 12:00:00 Temperatura 7.4 del 24-10-2018 10:00, Menor que la Mínima 10.0 24-10-2018 12:00 7.4 -- 10.0 2018-10-24 12:22:00
2 2018-10-25 12:00:00 Temperatura 9.9 del 25-10-2018 10:00, Menor que la Mínima 14.1 25-10-2018 12:00 9.9 -- 14.1 2018-10-25 12:22:00
2 2018-10-26 12:00:00 Temperatura 9.2 del 26-10-2018 09:00, Menor que la Mínima 16.7 26-10-2018 12:00 9.2 -- 16.7 2018-10-26 12:22:00
2 2018-10-27 12:00:00 Temperatura 13.4 del 27-10-2018 09:00, Menor que la Mínima 17.8 27-10-2018 12:00 13.4 -- 17.8 2018-10-27 12:22:00
2 2018-10-28 12:00:00 Temperatura 11.5 del 28-10-2018 08:00, Menor que la Mínima 17.1 28-10-2018 12:00 11.5 -- 17.1 2018-10-28 12:22:00
2 2018-10-29 12:00:00 Temperatura 14.2 del 29-10-2018 10:00, Menor que la Mínima 19.3 29-10-2018 12:00 14.2 -- 19.3 2022-05-20 18:49:00
2 2018-10-30 12:00:00 Temperatura 13.8 del 30-10-2018 09:00, Menor que la Mínima 15.5 30-10-2018 12:00 13.8 -- 15.5 2018-10-30 13:23:00
2 2018-10-31 12:00:00 Temperatura 9.9 del 31-10-2018 10:00, Menor que la Mínima 15.2 31-10-2018 12:00 9.9 -- 15.2 2018-10-31 12:22:00
2 2018-11-01 12:00:00 Temperatura 9.8 del 01-11-2018 09:00, Menor que la Mínima 14.7 01-11-2018 12:00 9.8 -- 14.7 2018-11-01 12:22:00
2 2018-11-02 12:00:00 Temperatura 10.1 del 02-11-2018 08:00, Menor que la Mínima 18.0 02-11-2018 12:00 10.1 -- 18.0 2022-05-20 18:50:00
2 2018-11-03 12:00:00 Temperatura 10.1 del 03-11-2018 10:00, Menor que la Mínima 15.1 03-11-2018 12:00 10.1 -- 15.1 2022-05-20 18:50:00
2 2018-11-04 12:00:00 Temperatura 9.4 del 04-11-2018 10:00, Menor que la Mínima 17.0 04-11-2018 12:00 9.4 -- 17.0 2018-11-06 13:37:00
2 2018-11-05 12:00:00 Temperatura 9.5 del 05-11-2018 10:00, Menor que la Mínima 15.9 05-11-2018 12:00 9.5 -- 15.9 2018-11-06 14:22:00
2 2018-11-06 12:00:00 Temperatura 10.4 del 06-11-2018 10:00, Menor que la Mínima 19.2 06-11-2018 12:00 10.4 -- 19.2 2018-11-06 14:22:00
2 2018-11-07 12:00:00 Temperatura 11.1 del 07-11-2018 10:00, Menor que la Mínima 20.1 07-11-2018 12:00 11.1 -- 20.1 2018-11-07 12:22:00
2 2018-11-08 12:00:00 Temperatura 11.6 del 08-11-2018 09:00, Menor que la Mínima 20.0 08-11-2018 12:00 11.6 -- 20.0 2018-11-08 12:22:00
2 2018-11-09 12:00:00 Temperatura 11.6 del 09-11-2018 08:00, Menor que la Mínima 19.3 09-11-2018 12:00 11.6 -- 19.3 2018-11-09 12:22:00
2 2018-11-10 12:00:00 Temperatura 9.6 del 10-11-2018 10:00, Menor que la Mínima 18.4 10-11-2018 12:00 9.6 -- 18.4 2018-11-10 12:22:00
2 2018-11-11 12:00:00 Temperatura 9.6 del 11-11-2018 10:00, Menor que la Mínima 18.1 11-11-2018 12:00 9.6 -- 18.1 2018-11-11 12:22:00
2 2018-11-12 12:00:00 Temperatura 11.6 del 12-11-2018 04:00, Menor que la Mínima 14.8 12-11-2018 12:00 11.6 -- 14.8 2018-11-12 12:37:00
2 2018-11-13 12:00:00 Temperatura 7.4 del 13-11-2018 09:00, Menor que la Mínima 13.1 13-11-2018 12:00 7.4 -- 13.1 2018-11-13 12:37:00
2 2018-11-14 12:00:00 Temperatura 8.4 del 14-11-2018 10:00, Menor que la Mínima 14.0 14-11-2018 12:00 8.4 -- 14.0 2018-11-14 12:37:00
2 2018-11-15 12:00:00 Temperatura 10.6 del 15-11-2018 10:00, Menor que la Mínima 17.3 15-11-2018 12:00 10.6 -- 17.3 2018-11-15 12:37:00
2 2018-11-16 12:00:00 Temperatura 10.7 del 16-11-2018 10:00, Menor que la Mínima 20.7 16-11-2018 12:00 10.7 -- 20.7 2018-11-16 12:22:00
2 2018-11-17 12:00:00 Temperatura 10.6 del 17-11-2018 10:00, Menor que la Mínima 17.9 17-11-2018 12:00 10.6 -- 17.9 2018-11-17 12:37:00
2 2018-11-18 12:00:00 Temperatura 11.6 del 18-11-2018 10:00, Menor que la Mínima 18.5 18-11-2018 12:00 11.6 -- 18.5 2018-11-18 12:37:00
2 2018-11-19 12:00:00 Temperatura 11.7 del 19-11-2018 10:00, Menor que la Mínima 21.0 19-11-2018 12:00 11.7 -- 21.0 2018-11-19 12:37:00
2 2018-11-20 12:00:00 Temperatura 11.2 del 20-11-2018 10:00, Menor que la Mínima 18.1 20-11-2018 12:00 11.2 -- 18.1 2018-11-20 12:37:00
2 2018-11-21 12:00:00 Temperatura 11.4 del 21-11-2018 10:00, Menor que la Mínima 16.9 21-11-2018 12:00 11.4 -- 16.9 2018-11-21 12:37:00
2 2018-11-22 12:00:00 Temperatura 11.4 del 22-11-2018 10:00, Menor que la Mínima 15.9 22-11-2018 12:00 11.4 -- 15.9 2018-11-22 12:22:00
2 2018-11-23 12:00:00 Temperatura 12.1 del 23-11-2018 10:00, Menor que la Mínima 18.1 23-11-2018 12:00 12.1 -- 18.1 2018-11-23 12:22:00
2 2018-11-24 12:00:00 Temperatura 11.6 del 24-11-2018 10:00, Menor que la Mínima 17.3 24-11-2018 12:00 11.6 -- 17.3 2018-11-24 12:22:00
2 2018-11-25 12:00:00 Temperatura 11.8 del 25-11-2018 09:00, Menor que la Mínima 19.7 25-11-2018 12:00 11.8 -- 19.7 2018-11-25 12:22:00
2 2018-11-26 12:00:00 Temperatura 11.0 del 26-11-2018 10:00, Menor que la Mínima 16.8 26-11-2018 12:00 11.0 -- 16.8 2018-11-26 12:22:00
2 2018-11-27 12:00:00 Temperatura 10.9 del 27-11-2018 10:00, Menor que la Mínima 16.6 27-11-2018 12:00 10.9 -- 16.6 2018-11-27 12:22:00
2 2018-11-28 12:00:00 Temperatura 11.3 del 28-11-2018 08:00, Menor que la Mínima 16.8 28-11-2018 12:00 11.3 -- 16.8 2018-11-28 12:22:00
2 2018-11-29 12:00:00 Temperatura 10.2 del 29-11-2018 10:00, Menor que la Mínima 12.6 29-11-2018 12:00 10.2 -- 12.6 2018-11-29 12:22:00
2 2018-11-30 12:00:00 Temperatura 10.0 del 30-11-2018 10:00, Menor que la Mínima 14.4 30-11-2018 12:00 10.0 -- 14.4 2018-11-30 12:22:00
2 2018-12-01 12:00:00 Temperatura 10.7 del 01-12-2018 10:00, Menor que la Mínima 16.5 01-12-2018 12:00 10.7 -- 16.5 2018-12-01 12:22:00
2 2018-12-02 12:00:00 Temperatura 12.0 del 02-12-2018 06:00, Menor que la Mínima 15.6 02-12-2018 12:00 12.0 -- 15.6 2018-12-02 12:22:00
2 2018-12-03 12:00:00 Temperatura 11.6 del 03-12-2018 07:00, Menor que la Mínima 14.4 03-12-2018 12:00 11.6 -- 14.4 2018-12-03 12:22:00
2 2018-12-04 12:00:00 Temperatura 9.6 del 04-12-2018 09:00, Menor que la Mínima 12.3 04-12-2018 12:00 9.6 -- 12.3 2018-12-04 12:22:00
2 2018-12-05 12:00:00 Temperatura 8.6 del 05-12-2018 10:00, Menor que la Mínima 12.9 05-12-2018 12:00 8.6 -- 12.9 2018-12-05 12:22:00
2 2018-12-06 12:00:00 Temperatura 9.9 del 06-12-2018 10:00, Menor que la Mínima 15.6 06-12-2018 12:00 9.9 -- 15.6 2018-12-06 12:22:00
2 2018-12-07 12:00:00 Temperatura 9.7 del 07-12-2018 10:00, Menor que la Mínima 17.1 07-12-2018 12:00 9.7 -- 17.1 2018-12-07 12:23:00
2 2018-12-08 12:00:00 Temperatura 10.1 del 08-12-2018 10:00, Menor que la Mínima 15.0 08-12-2018 12:00 10.1 -- 15.0 2018-12-08 12:37:00
2 2018-12-09 12:00:00 Temperatura 9.6 del 09-12-2018 10:00, Menor que la Mínima 16.2 09-12-2018 12:00 9.6 -- 16.2 2018-12-09 12:22:00
2 2018-12-10 12:00:00 Temperatura 11.6 del 10-12-2018 10:00, Menor que la Mínima 17.9 10-12-2018 12:00 11.6 -- 17.9 2018-12-10 12:37:00
2 2018-12-11 12:00:00 Temperatura 11.5 del 11-12-2018 10:00, Menor que la Mínima 21.2 11-12-2018 12:00 11.5 -- 21.2 2018-12-11 12:20:00
2 2018-12-12 12:00:00 Temperatura 12.5 del 12-12-2018 10:00, Menor que la Mínima 19.0 12-12-2018 12:00 12.5 -- 19.0 2022-05-20 18:50:00
2 2018-12-13 12:00:00 Temperatura 11.8 del 13-12-2018 09:00, Menor que la Mínima 19.8 13-12-2018 12:00 11.8 -- 19.8 2018-12-13 12:20:00
2 2018-12-14 12:00:00 Temperatura 10.0 del 14-12-2018 10:00, Menor que la Mínima 16.7 14-12-2018 12:00 10.0 -- 16.7 2018-12-14 12:20:00
2 2018-12-15 12:00:00 Temperatura 10.8 del 15-12-2018 10:00, Menor que la Mínima 17.7 15-12-2018 12:00 10.8 -- 17.7 2018-12-15 12:20:00
2 2018-12-16 12:00:00 Temperatura 11.4 del 16-12-2018 10:00, Menor que la Mínima 18.1 16-12-2018 12:00 11.4 -- 18.1 2018-12-16 12:20:00
2 2018-12-17 12:00:00 Temperatura 11.7 del 17-12-2018 10:00, Menor que la Mínima 19.8 17-12-2018 12:00 11.7 -- 19.8 2018-12-17 12:20:00
2 2018-12-18 12:00:00 Temperatura 15.4 del 18-12-2018 11:00, Menor que la Mínima 16.5 18-12-2018 12:00 15.4 -- 16.5 2018-12-18 12:20:00
2 2018-12-19 12:00:00 Temperatura 11.1 del 19-12-2018 10:00, Menor que la Mínima 16.8 19-12-2018 12:00 11.1 -- 16.8 2018-12-19 12:20:00
2 2018-12-20 12:00:00 Temperatura 11.4 del 20-12-2018 10:00, Menor que la Mínima 17.0 20-12-2018 12:00 11.4 -- 17.0 2018-12-20 12:20:00
2 2018-12-21 12:00:00 Temperatura 10.8 del 21-12-2018 10:00, Menor que la Mínima 18.7 21-12-2018 12:00 10.8 -- 18.7 2018-12-21 12:20:00
2 2018-12-22 12:00:00 Temperatura 10.7 del 22-12-2018 10:00, Menor que la Mínima 17.1 22-12-2018 12:00 10.7 -- 17.1 2018-12-22 12:20:00
2 2018-12-23 12:00:00 Temperatura 11.7 del 23-12-2018 10:00, Menor que la Mínima 13.4 23-12-2018 12:00 11.7 -- 13.4 2018-12-23 12:20:00
2 2018-12-24 12:00:00 Temperatura 12.1 del 24-12-2018 10:00, Menor que la Mínima 19.5 24-12-2018 12:00 12.1 -- 19.5 2018-12-24 12:20:00
2 2018-12-25 12:00:00 Temperatura 12.6 del 25-12-2018 09:00, Menor que la Mínima 17.9 25-12-2018 12:00 12.6 -- 17.9 2018-12-25 12:20:00
2 2018-12-26 12:00:00 Temperatura 11.4 del 26-12-2018 09:00, Menor que la Mínima 14.2 26-12-2018 12:00 11.4 -- 14.2 2018-12-26 12:20:00
2 2018-12-27 12:00:00 Temperatura 11.3 del 27-12-2018 10:00, Menor que la Mínima 14.3 27-12-2018 12:00 11.3 -- 14.3 2018-12-27 12:20:00
2 2018-12-28 12:00:00 Temperatura 12.0 del 28-12-2018 10:00, Menor que la Mínima 16.2 28-12-2018 12:00 12.0 -- 16.2 2018-12-28 12:20:00
2 2018-12-29 12:00:00 Temperatura 11.9 del 29-12-2018 10:00, Menor que la Mínima 18.1 29-12-2018 12:00 11.9 -- 18.1 2018-12-29 12:40:00
2 2018-12-30 12:00:00 Temperatura 12.6 del 30-12-2018 10:00, Menor que la Mínima 16.8 30-12-2018 12:00 12.6 -- 16.8 2018-12-30 12:40:00
2 2018-12-31 12:00:00 Temperatura 12.6 del 31-12-2018 10:00, Menor que la Mínima 18.9 31-12-2018 12:00 12.6 -- 18.9 2018-12-31 12:20:00
2 2019-01-01 12:00:00 Temperatura 12.5 del 01-01-2019 10:00, Menor que la Mínima 18.6 01-01-2019 12:00 12.5 -- 18.6 2019-01-01 12:20:00
2 2019-01-01 12:00:00 Temperatura 12.5 del 01-01-2019 10:00, Menor que la Mínima 18.6 01-01-2019 12:00 12.5 -- 18.6 2019-01-01 12:20:00
2 2019-01-02 12:00:00 Temperatura 14.4 del 02-01-2019 10:00, Menor que la Mínima 18.3 02-01-2019 12:00 14.4 -- 18.3 2019-01-02 12:40:00
2 2019-01-03 12:00:00 Temperatura 14.2 del 03-01-2019 10:00, Menor que la Mínima 20.2 03-01-2019 12:00 14.2 -- 20.2 2019-01-03 12:40:00
2 2019-01-04 12:00:00 Temperatura 13.2 del 04-01-2019 10:00, Menor que la Mínima 19.0 04-01-2019 12:00 13.2 -- 19.0 2019-01-04 12:40:00
2 2019-01-05 12:00:00 Temperatura 13.0 del 05-01-2019 10:00, Menor que la Mínima 17.4 05-01-2019 12:00 13.0 -- 17.4 2019-01-05 12:40:00
2 2019-01-06 12:00:00 Temperatura 13.5 del 06-01-2019 09:00, Menor que la Mínima 17.2 06-01-2019 12:00 13.5 -- 17.2 2019-01-06 12:40:00
2 2019-01-07 12:00:00 Temperatura 10.9 del 07-01-2019 10:00, Menor que la Mínima 15.3 07-01-2019 12:00 10.9 -- 15.3 2019-01-07 12:40:00
2 2019-01-08 12:00:00 Temperatura 10.3 del 08-01-2019 10:00, Menor que la Mínima 15.3 08-01-2019 12:00 10.3 -- 15.3 2019-01-08 12:40:00
2 2019-01-09 12:00:00 Temperatura 11.6 del 09-01-2019 10:00, Menor que la Mínima 16.2 09-01-2019 12:00 11.6 -- 16.2 2019-01-09 12:40:00
2 2019-01-10 12:00:00 Temperatura 11.6 del 10-01-2019 10:00, Menor que la Mínima 17.6 10-01-2019 12:00 11.6 -- 17.6 2019-01-10 12:40:00
2 2019-01-11 12:00:00 Temperatura 11.6 del 11-01-2019 10:00, Menor que la Mínima 18.2 11-01-2019 12:00 11.6 -- 18.2 2019-01-11 12:40:00
2 2019-01-12 12:00:00 Temperatura 11.8 del 12-01-2019 10:00, Menor que la Mínima 14.9 12-01-2019 12:00 11.8 -- 14.9 2019-01-12 12:40:00
2 2019-01-13 12:00:00 Temperatura 11.2 del 13-01-2019 10:00, Menor que la Mínima 16.4 13-01-2019 12:00 11.2 -- 16.4 2019-01-13 12:40:00
2 2019-01-14 12:00:00 Temperatura 13.0 del 14-01-2019 09:00, Menor que la Mínima 15.2 14-01-2019 12:00 13.0 -- 15.2 2019-01-14 12:40:00
2 2019-01-15 12:00:00 Temperatura 12.7 del 15-01-2019 10:00, Menor que la Mínima 16.8 15-01-2019 12:00 12.7 -- 16.8 2019-01-15 12:40:00
2 2019-01-16 12:00:00 Temperatura 12.5 del 16-01-2019 10:00, Menor que la Mínima 19.1 16-01-2019 12:00 12.5 -- 19.1 2019-01-16 12:40:00
2 2019-01-17 12:00:00 Temperatura 12.0 del 17-01-2019 10:00, Menor que la Mínima 15.1 17-01-2019 12:00 12.0 -- 15.1 2019-01-17 12:40:00
2 2019-01-18 12:00:00 Temperatura 12.9 del 18-01-2019 10:00, Menor que la Mínima 15.9 18-01-2019 12:00 12.9 -- 15.9 2019-01-18 13:20:00
2 2019-01-19 12:00:00 Temperatura 12.3 del 19-01-2019 09:00, Menor que la Mínima 18.5 19-01-2019 12:00 12.3 -- 18.5 2019-01-19 12:40:00
2 2019-01-20 12:00:00 Temperatura 12.9 del 20-01-2019 10:00, Menor que la Mínima 13.1 20-01-2019 12:00 12.9 -- 13.1 2019-01-20 12:40:00
2 2019-01-21 12:00:00 Temperatura 13.2 del 21-01-2019 11:00, Menor que la Mínima 16.8 21-01-2019 12:00 13.2 -- 16.8 2019-01-21 12:40:00
2 2019-01-22 12:00:00 Temperatura 12.9 del 22-01-2019 10:00, Menor que la Mínima 16.3 22-01-2019 12:00 12.9 -- 16.3 2019-01-22 12:40:00
2 2019-01-23 12:00:00 Temperatura 12.8 del 23-01-2019 09:00, Menor que la Mínima 16.2 23-01-2019 12:00 12.8 -- 16.2 2019-01-23 12:40:00
2 2019-01-24 12:00:00 Temperatura 13.4 del 24-01-2019 10:00, Menor que la Mínima 13.5 24-01-2019 12:00 13.4 -- 13.5 2019-01-24 12:40:00
2 2019-01-25 12:00:00 Temperatura 14.2 del 25-01-2019 10:00, Menor que la Mínima 17.8 25-01-2019 12:00 14.2 -- 17.8 2019-01-25 12:40:00
2 2019-01-26 12:00:00 Temperatura 14.9 del 26-01-2019 11:00, Menor que la Mínima 17.6 26-01-2019 12:00 14.9 -- 17.6 2019-01-26 12:40:00
2 2019-01-27 12:00:00 Temperatura 14.6 del 27-01-2019 10:00, Menor que la Mínima 19.5 27-01-2019 12:00 14.6 -- 19.5 2019-01-27 12:40:00
2 2019-01-28 12:00:00 Temperatura 14.7 del 28-01-2019 10:00, Menor que la Mínima 18.0 28-01-2019 12:00 14.7 -- 18.0 2019-01-28 12:40:00
2 2019-01-29 12:00:00 Temperatura 14.6 del 29-01-2019 10:00, Menor que la Mínima 18.7 29-01-2019 12:00 14.6 -- 18.7 2019-01-29 12:40:00
2 2019-01-30 12:00:00 Temperatura 14.9 del 30-01-2019 10:00, Menor que la Mínima 17.3 30-01-2019 12:00 14.9 -- 17.3 2019-01-30 12:40:00
2 2019-01-31 12:00:00 Temperatura 15.8 del 31-01-2019 10:00, Menor que la Mínima 19.1 31-01-2019 12:00 15.8 -- 19.1 2019-01-31 12:40:00
2 2019-02-01 12:00:00 Temperatura 16.2 del 01-02-2019 11:00, Menor que la Mínima 19.8 01-02-2019 12:00 16.2 -- 19.8 2019-02-01 12:40:00
2 2019-02-02 12:00:00 Temperatura 16.4 del 02-02-2019 10:00, Menor que la Mínima 20.5 02-02-2019 12:00 16.4 -- 20.5 2019-02-02 12:40:00
2 2019-02-03 12:00:00 Temperatura 16.2 del 03-02-2019 11:00, Menor que la Mínima 20.6 03-02-2019 12:00 16.2 -- 20.6 2019-02-03 12:40:00
2 2019-02-04 12:00:00 Temperatura 14.2 del 04-02-2019 10:00, Menor que la Mínima 19.3 04-02-2019 12:00 14.2 -- 19.3 2019-02-04 12:40:00
2 2019-02-05 12:00:00 Temperatura 15.1 del 05-02-2019 05:00, Menor que la Mínima 17.0 05-02-2019 12:00 15.1 -- 17.0 2019-02-05 12:40:00
2 2019-02-06 12:00:00 Temperatura 14.3 del 06-02-2019 09:00, Menor que la Mínima 17.5 06-02-2019 12:00 14.3 -- 17.5 2019-02-06 12:40:00
2 2019-02-08 12:00:00 Temperatura 15.1 del 08-02-2019 10:00, Menor que la Mínima 17.2 08-02-2019 12:00 15.1 -- 17.2 2019-02-08 12:20:00
2 2019-02-09 12:00:00 Temperatura 15.1 del 09-02-2019 10:00, Menor que la Mínima 19.4 09-02-2019 12:00 15.1 -- 19.4 2019-02-09 12:20:00
2 2019-02-10 12:00:00 Temperatura 14.5 del 10-02-2019 11:00, Menor que la Mínima 18.9 10-02-2019 12:00 14.5 -- 18.9 2019-02-10 12:20:00
2 2019-02-11 12:00:00 Temperatura 15.8 del 11-02-2019 09:00, Menor que la Mínima 19.4 11-02-2019 12:00 15.8 -- 19.4 2019-02-11 12:20:00
2 2019-02-12 12:00:00 Temperatura 13.8 del 12-02-2019 10:00, Menor que la Mínima 19.3 12-02-2019 12:00 13.8 -- 19.3 2019-02-12 12:20:00
2 2019-02-13 12:00:00 Temperatura 11.5 del 13-02-2019 11:00, Menor que la Mínima 17.7 13-02-2019 12:00 11.5 -- 17.7 2019-02-13 12:20:00
2 2019-02-14 12:00:00 Temperatura 11.2 del 14-02-2019 11:00, Menor que la Mínima 16.2 14-02-2019 12:00 11.2 -- 16.2 2019-02-14 12:20:00
2 2019-02-15 12:00:00 Temperatura 12.2 del 15-02-2019 10:00, Menor que la Mínima 16.9 15-02-2019 12:00 12.2 -- 16.9 2019-02-15 12:20:00
2 2019-02-16 12:00:00 Temperatura 12.5 del 16-02-2019 09:00, Menor que la Mínima 13.3 16-02-2019 12:00 12.5 -- 13.3 2019-02-16 12:20:00
2 2019-02-17 12:00:00 Temperatura 12.4 del 17-02-2019 11:00, Menor que la Mínima 14.7 17-02-2019 12:00 12.4 -- 14.7 2019-02-17 12:20:00
2 2019-02-18 12:00:00 Temperatura 12.9 del 18-02-2019 11:00, Menor que la Mínima 16.7 18-02-2019 12:00 12.9 -- 16.7 2019-02-18 12:20:00
2 2019-02-19 12:00:00 Temperatura 12.5 del 19-02-2019 11:00, Menor que la Mínima 15.3 19-02-2019 12:00 12.5 -- 15.3 2019-02-19 12:20:00
2 2019-02-20 12:00:00 Temperatura 12.6 del 20-02-2019 11:00, Menor que la Mínima 16.9 20-02-2019 12:00 12.6 -- 16.9 2019-02-20 12:20:00
2 2019-02-21 12:00:00 Temperatura 13.0 del 21-02-2019 10:00, Menor que la Mínima 15.7 21-02-2019 12:00 13.0 -- 15.7 2019-02-21 12:20:00
2 2019-02-22 12:00:00 Temperatura 13.5 del 22-02-2019 10:00, Menor que la Mínima 16.4 22-02-2019 12:00 13.5 -- 16.4 2019-02-22 12:20:00
2 2019-02-23 12:00:00 Temperatura 15.1 del 23-02-2019 11:00, Menor que la Mínima 16.9 23-02-2019 12:00 15.1 -- 16.9 2019-02-23 12:20:00
2 2019-02-24 12:00:00 Temperatura 14.0 del 24-02-2019 11:00, Menor que la Mínima 19.4 24-02-2019 12:00 14.0 -- 19.4 2019-02-24 12:20:00
2 2019-02-25 12:00:00 Temperatura 12.9 del 25-02-2019 11:00, Menor que la Mínima 17.0 25-02-2019 12:00 12.9 -- 17.0 2019-02-25 12:20:00
2 2019-02-26 12:00:00 Temperatura 12.7 del 26-02-2019 11:00, Menor que la Mínima 16.2 26-02-2019 12:00 12.7 -- 16.2 2019-02-26 12:20:00
2 2019-02-27 12:00:00 Temperatura 12.8 del 27-02-2019 10:00, Menor que la Mínima 16.5 27-02-2019 12:00 12.8 -- 16.5 2019-02-27 12:20:00
2 2019-02-28 12:00:00 Temperatura 13.2 del 28-02-2019 10:00, Menor que la Mínima 17.0 28-02-2019 12:00 13.2 -- 17.0 2019-02-28 12:20:00
2 2019-03-01 12:00:00 Temperatura 12.7 del 01-03-2019 11:00, Menor que la Mínima 15.5 01-03-2019 12:00 12.7 -- 15.5 2019-03-01 12:20:00
2 2019-03-02 12:00:00 Temperatura 11.7 del 02-03-2019 11:00, Menor que la Mínima 15.5 02-03-2019 12:00 11.7 -- 15.5 2019-03-02 12:20:00
2 2019-03-03 12:00:00 Temperatura 13.0 del 03-03-2019 11:00, Menor que la Mínima 15.0 03-03-2019 12:00 13.0 -- 15.0 2019-03-03 12:20:00
2 2019-03-04 12:00:00 Temperatura 11.1 del 04-03-2019 11:00, Menor que la Mínima 13.8 04-03-2019 12:00 11.1 -- 13.8 2019-03-04 12:20:00
2 2019-03-05 12:00:00 Temperatura 11.7 del 05-03-2019 11:00, Menor que la Mínima 14.7 05-03-2019 12:00 11.7 -- 14.7 2019-03-05 12:20:00
2 2019-03-06 12:00:00 Temperatura 12.4 del 06-03-2019 11:00, Menor que la Mínima 16.4 06-03-2019 12:00 12.4 -- 16.4 2019-03-06 12:20:00
2 2019-03-07 12:00:00 Temperatura 11.9 del 07-03-2019 11:00, Menor que la Mínima 17.2 07-03-2019 12:00 11.9 -- 17.2 2019-03-07 12:20:00
2 2019-03-08 12:00:00 Temperatura 11.8 del 08-03-2019 11:00, Menor que la Mínima 15.6 08-03-2019 12:00 11.8 -- 15.6 2019-03-08 12:20:00
2 2019-03-09 12:00:00 Temperatura 10.4 del 09-03-2019 11:00, Menor que la Mínima 15.5 09-03-2019 12:00 10.4 -- 15.5 2019-03-09 12:20:00
2 2019-03-10 12:00:00 Temperatura 8.9 del 10-03-2019 11:00, Menor que la Mínima 13.2 10-03-2019 12:00 8.9 -- 13.2 2019-03-10 12:20:00
2 2019-03-11 12:00:00 Temperatura 9.3 del 11-03-2019 10:00, Menor que la Mínima 12.2 11-03-2019 12:00 9.3 -- 12.2 2019-03-11 12:20:00
2 2019-03-12 12:00:00 Temperatura 10.1 del 12-03-2019 10:00, Menor que la Mínima 12.8 12-03-2019 12:00 10.1 -- 12.8 2019-03-12 12:20:00
2 2019-03-13 12:00:00 Temperatura 10.9 del 13-03-2019 10:00, Menor que la Mínima 14.1 13-03-2019 12:00 10.9 -- 14.1 2019-03-13 12:20:00
2 2019-03-15 12:00:00 Temperatura 10.0 del 15-03-2019 11:00, Menor que la Mínima 12.1 15-03-2019 12:00 10.0 -- 12.1 2019-03-15 12:20:00
2 2019-03-16 12:00:00 Temperatura 9.4 del 16-03-2019 11:00, Menor que la Mínima 13.5 16-03-2019 12:00 9.4 -- 13.5 2019-03-16 12:20:00
2 2019-03-17 12:00:00 Temperatura 9.5 del 17-03-2019 11:00, Menor que la Mínima 12.7 17-03-2019 12:00 9.5 -- 12.7 2019-03-17 12:20:00
2 2019-03-18 12:00:00 Temperatura 9.3 del 18-03-2019 11:00, Menor que la Mínima 13.5 18-03-2019 12:00 9.3 -- 13.5 2019-03-18 12:20:00
2 2019-03-19 12:00:00 Temperatura 10.0 del 19-03-2019 11:00, Menor que la Mínima 13.3 19-03-2019 12:00 10.0 -- 13.3 2019-03-19 12:20:00
2 2019-03-20 12:00:00 Temperatura 10.2 del 20-03-2019 11:00, Menor que la Mínima 13.5 20-03-2019 12:00 10.2 -- 13.5 2019-03-20 12:20:00
2 2019-03-21 12:00:00 Temperatura 9.5 del 21-03-2019 11:00, Menor que la Mínima 14.2 21-03-2019 12:00 9.5 -- 14.2 2019-03-21 12:20:00
2 2019-03-22 12:00:00 Temperatura 9.9 del 22-03-2019 11:00, Menor que la Mínima 12.7 22-03-2019 12:00 9.9 -- 12.7 2019-03-22 13:20:00
2 2019-03-23 12:00:00 Temperatura 10.1 del 23-03-2019 11:00, Menor que la Mínima 13.3 23-03-2019 12:00 10.1 -- 13.3 2019-03-25 19:40:00
2 2019-03-24 12:00:00 Temperatura 10.0 del 24-03-2019 11:00, Menor que la Mínima 13.6 24-03-2019 12:00 10.0 -- 13.6 2019-03-25 19:50:00
2 2019-03-25 12:00:00 Temperatura 9.2 del 25-03-2019 11:00, Menor que la Mínima 12.9 25-03-2019 12:00 9.2 -- 12.9 2019-03-25 20:00:00
2 2019-03-26 12:00:00 Temperatura 9.6 del 26-03-2019 11:00, Menor que la Mínima 12.2 26-03-2019 12:00 9.6 -- 12.2 2019-03-26 12:20:00
2 2019-03-27 12:00:00 Temperatura 9.7 del 27-03-2019 11:00, Menor que la Mínima 11.9 27-03-2019 12:00 9.7 -- 11.9 2019-03-27 12:20:00
2 2019-03-28 12:00:00 Temperatura 8.7 del 28-03-2019 10:00, Menor que la Mínima 13.1 28-03-2019 12:00 8.7 -- 13.1 2019-03-28 12:20:00
2 2019-03-29 12:00:00 Temperatura 8.6 del 29-03-2019 11:00, Menor que la Mínima 11.7 29-03-2019 12:00 8.6 -- 11.7 2019-03-29 12:20:00
2 2019-03-30 12:00:00 Temperatura 11.2 del 30-03-2019 08:00, Menor que la Mínima 11.7 30-03-2019 12:00 11.2 -- 11.7 2019-03-30 12:20:00
2 2019-03-31 12:00:00 Temperatura 12.4 del 31-03-2019 11:00, Menor que la Mínima 12.6 31-03-2019 12:00 12.4 -- 12.6 2019-03-31 12:20:00
2 2019-04-01 12:00:00 Temperatura 8.7 del 01-04-2019 11:00, Menor que la Mínima 13.0 01-04-2019 12:00 8.7 -- 13.0 2019-04-01 12:20:00
2 2019-04-02 12:00:00 Temperatura 10.9 del 02-04-2019 06:00, Menor que la Mínima 11.3 02-04-2019 12:00 10.9 -- 11.3 2019-04-02 12:20:00
2 2019-04-03 12:00:00 Temperatura 9.4 del 03-04-2019 09:00, Menor que la Mínima 11.2 03-04-2019 12:00 9.4 -- 11.2 2019-04-03 12:20:00
2 2019-04-04 12:00:00 Temperatura 10.2 del 04-04-2019 11:00, Menor que la Mínima 11.4 04-04-2019 12:00 10.2 -- 11.4 2019-04-04 12:20:00
2 2019-04-05 12:00:00 Temperatura 10.6 del 05-04-2019 10:00, Menor que la Mínima 12.1 05-04-2019 12:00 10.6 -- 12.1 2019-04-05 12:20:00
2 2019-04-06 12:00:00 Temperatura 11.1 del 06-04-2019 11:00, Menor que la Mínima 13.5 06-04-2019 12:00 11.1 -- 13.5 2019-04-06 12:20:00
2 2019-04-07 12:00:00 Temperatura 10.9 del 07-04-2019 11:00, Menor que la Mínima 15.1 07-04-2019 12:00 10.9 -- 15.1 2019-04-07 12:20:00
2 2019-04-08 12:00:00 Temperatura 9.2 del 08-04-2019 11:00, Menor que la Mínima 13.8 08-04-2019 12:00 9.2 -- 13.8 2019-04-08 12:20:00
2 2019-04-09 12:00:00 Temperatura 9.9 del 09-04-2019 08:00, Menor que la Mínima 10.3 09-04-2019 12:00 9.9 -- 10.3 2019-04-09 12:20:00
2 2019-04-10 12:00:00 Temperatura 7.7 del 10-04-2019 11:00, Menor que la Mínima 10.4 10-04-2019 12:00 7.7 -- 10.4 2019-04-10 12:20:00
2 2019-04-11 12:00:00 Temperatura 5.9 del 11-04-2019 11:00, Menor que la Mínima 10.3 11-04-2019 12:00 5.9 -- 10.3 2019-04-11 12:20:00
2 2019-04-12 12:00:00 Temperatura 8.2 del 12-04-2019 06:00, Menor que la Mínima 8.3 12-04-2019 12:00 8.2 -- 8.3 2019-04-12 12:20:00
2 2019-04-13 12:00:00 Temperatura 7.6 del 13-04-2019 09:00, Menor que la Mínima 9.0 13-04-2019 12:00 7.6 -- 9.0 2019-04-13 12:20:00
2 2019-04-14 12:00:00 Temperatura 6.9 del 14-04-2019 10:00, Menor que la Mínima 8.6 14-04-2019 12:00 6.9 -- 8.6 2019-04-14 12:20:00
2 2019-04-15 12:00:00 Temperatura 9.0 del 15-04-2019 08:00, Menor que la Mínima 10.1 15-04-2019 12:00 9.0 -- 10.1 2019-04-15 12:20:00
2 2019-04-16 12:00:00 Temperatura 7.1 del 16-04-2019 11:00, Menor que la Mínima 10.5 16-04-2019 12:00 7.1 -- 10.5 2019-04-16 12:20:00
2 2019-04-17 12:00:00 Temperatura 6.6 del 17-04-2019 11:00, Menor que la Mínima 10.0 17-04-2019 12:00 6.6 -- 10.0 2019-04-17 12:20:00
2 2019-04-18 12:00:00 Temperatura 7.3 del 18-04-2019 08:00, Menor que la Mínima 8.8 18-04-2019 12:00 7.3 -- 8.8 2019-04-18 12:20:00
2 2019-04-20 12:00:00 Temperatura 7.6 del 20-04-2019 07:00, Menor que la Mínima 9.6 20-04-2019 12:00 7.6 -- 9.6 2019-04-20 12:20:00
2 2019-04-21 12:00:00 Temperatura 5.3 del 21-04-2019 11:00, Menor que la Mínima 9.5 21-04-2019 12:00 5.3 -- 9.5 2019-04-21 12:20:00
2 2019-04-22 12:00:00 Temperatura 4.7 del 22-04-2019 11:00, Menor que la Mínima 6.5 22-04-2019 12:00 4.7 -- 6.5 2019-04-22 12:20:00
2 2019-04-23 12:00:00 Temperatura 5.6 del 23-04-2019 11:00, Menor que la Mínima 5.8 23-04-2019 12:00 5.6 -- 5.8 2019-04-23 12:20:00
2 2019-04-25 12:00:00 Temperatura 8.1 del 25-04-2019 11:00, Menor que la Mínima 10.6 25-04-2019 12:00 8.1 -- 10.6 2019-04-25 12:20:00
2 2019-04-26 12:00:00 Temperatura 7.1 del 26-04-2019 11:00, Menor que la Mínima 8.9 26-04-2019 12:00 7.1 -- 8.9 2019-04-26 12:20:00
2 2019-04-27 12:00:00 Temperatura 7.7 del 27-04-2019 11:00, Menor que la Mínima 8.6 27-04-2019 12:00 7.7 -- 8.6 2019-04-27 12:20:00
2 2019-04-29 12:00:00 Temperatura 6.8 del 29-04-2019 11:00, Menor que la Mínima 12.7 29-04-2019 12:00 6.8 -- 12.7 2019-04-29 12:20:00
2 2019-05-01 12:00:00 Temperatura 7.5 del 01-05-2019 09:00, Menor que la Mínima 9.7 01-05-2019 12:00 7.5 -- 9.7 2019-05-01 12:20:00
2 2019-05-02 12:00:00 Temperatura 6.9 del 02-05-2019 11:00, Menor que la Mínima 8.3 02-05-2019 12:00 6.9 -- 8.3 2019-05-02 12:20:00
2 2019-05-03 12:00:00 Temperatura 6.1 del 03-05-2019 10:00, Menor que la Mínima 8.7 03-05-2019 12:00 6.1 -- 8.7 2019-05-03 12:20:00
2 2019-05-05 12:00:00 Temperatura 5.9 del 05-05-2019 10:00, Menor que la Mínima 7.4 05-05-2019 12:00 5.9 -- 7.4 2019-05-05 12:20:00
2 2019-05-08 12:00:00 Temperatura 8.6 del 08-05-2019 11:00, Menor que la Mínima 13.0 08-05-2019 12:00 8.6 -- 13.0 2019-05-08 12:20:00
2 2019-05-10 12:00:00 Temperatura 3.2 del 10-05-2019 10:00, Menor que la Mínima 10.5 10-05-2019 12:00 3.2 -- 10.5 2019-05-14 18:51:00
2 2019-05-11 12:00:00 Temperatura 3.8 del 11-05-2019 08:00, Menor que la Mínima 4.6 11-05-2019 12:00 3.8 -- 4.6 2019-05-14 18:51:00
2 2019-05-12 12:00:00 Temperatura 3.0 del 12-05-2019 11:00, Menor que la Mínima 6.0 12-05-2019 12:00 3.0 -- 6.0 2019-05-14 18:51:00
2 2019-05-14 12:00:00 Temperatura 5.4 del 14-05-2019 11:00, Menor que la Mínima 6.2 14-05-2019 12:00 5.4 -- 6.2 2019-05-14 18:51:00
2 2019-05-16 12:00:00 Temperatura 3.6 del 16-05-2019 12:00, Menor que la Mínima 6.1 16-05-2019 12:00 3.6 -- 6.1 2019-05-24 14:34:00
2 2019-05-17 12:00:00 Temperatura 3.4 del 17-05-2019 12:00, Menor que la Mínima 3.6 17-05-2019 12:00 3.4 -- 3.6 2019-05-24 14:11:00
2 2019-05-21 12:00:00 Temperatura 3.9 del 21-05-2019 12:00, Menor que la Mínima 9.0 21-05-2019 12:00 3.9 -- 9.0 2019-05-24 14:14:00
2 2019-05-22 12:00:00 Temperatura 0.0 del 22-05-2019 11:00, Menor que la Mínima 3.9 22-05-2019 12:00 0.0 -- 3.9 2019-05-24 14:00:00
2 2019-05-26 12:00:00 Temperatura 7.8 del 26-05-2019 05:00, Menor que la Mínima 9.4 26-05-2019 12:00 7.8 -- 9.4 2019-05-28 12:11:00
2 2019-05-27 12:00:00 Temperatura 7.3 del 27-05-2019 11:00, Menor que la Mínima 8.4 27-05-2019 12:00 7.3 -- 8.4 2019-05-28 12:11:00
2 2019-05-28 12:00:00 Temperatura 4.2 del 28-05-2019 07:00, Menor que la Mínima 7.2 28-05-2019 12:00 4.2 -- 7.2 2019-05-28 12:37:00
2 2019-05-31 12:00:00 Temperatura 9.1 del 31-05-2019 05:00, Menor que la Mínima 10.7 31-05-2019 12:00 9.1 -- 10.7 2019-05-31 12:20:00
2 2019-06-01 12:00:00 Temperatura 6.1 del 01-06-2019 07:00, Menor que la Mínima 10.9 01-06-2019 12:00 6.1 -- 10.9 2019-06-01 12:20:00
2 2019-06-02 12:00:00 Temperatura 5.3 del 02-06-2019 06:00, Menor que la Mínima 10.2 02-06-2019 12:00 5.3 -- 10.2 2019-06-02 12:20:00
2 2019-06-03 12:00:00 Temperatura 8.2 del 03-06-2019 03:00, Menor que la Mínima 11.1 03-06-2019 12:00 8.2 -- 11.1 2019-06-03 12:20:00
2 2019-06-04 12:00:00 Temperatura 8.2 del 04-06-2019 12:00, Menor que la Mínima 14.5 04-06-2019 12:00 8.2 -- 14.5 2019-06-04 12:20:00
2 2019-06-05 12:00:00 Temperatura 4.9 del 05-06-2019 11:00, Menor que la Mínima 8.2 05-06-2019 12:00 4.9 -- 8.2 2019-06-05 12:20:00
2 2019-06-06 12:00:00 Temperatura 2.1 del 06-06-2019 11:00, Menor que la Mínima 5.5 06-06-2019 12:00 2.1 -- 5.5 2019-06-06 12:20:00
2 2019-06-09 12:00:00 Temperatura 1.8 del 09-06-2019 11:00, Menor que la Mínima 2.6 09-06-2019 12:00 1.8 -- 2.6 2019-06-09 12:20:00
2 2019-06-10 12:00:00 Temperatura 1.0 del 10-06-2019 09:00, Menor que la Mínima 1.5 10-06-2019 12:00 1.0 -- 1.5 2019-06-10 12:20:00
2 2019-06-11 12:00:00 Temperatura 2.3 del 11-06-2019 12:00, Menor que la Mínima 2.4 11-06-2019 12:00 2.3 -- 2.4 2019-06-11 12:20:00
2 2019-06-13 12:00:00 Temperatura 1.1 del 13-06-2019 12:00, Menor que la Mínima 3.4 13-06-2019 12:00 1.1 -- 3.4 2019-06-13 12:20:00
2 2019-06-14 12:00:00 Temperatura 0.4 del 14-06-2019 12:00, Menor que la Mínima 1.0 14-06-2019 12:00 0.4 -- 1.0 2019-06-14 12:20:00
2 2019-06-16 12:00:00 Temperatura -1.7 del 16-06-2019 11:00, Menor que la Mínima 5.3 16-06-2019 12:00 -1.7 -- 5.3 2019-06-16 12:20:00
2 2019-06-20 12:00:00 Temperatura 8.7 del 20-06-2019 12:00, Menor que la Mínima 20.0 20-06-2019 12:00 8.7 -- 20.0 2019-06-20 12:20:00
2 2019-06-21 12:00:00 Temperatura 3.0 del 21-06-2019 11:00, Menor que la Mínima 8.7 21-06-2019 12:00 3.0 -- 8.7 2019-06-21 12:20:00
2 2019-06-23 12:00:00 Temperatura 6.3 del 23-06-2019 11:00, Menor que la Mínima 10.4 23-06-2019 12:00 6.3 -- 10.4 2019-06-23 12:18:00
2 2019-06-25 12:00:00 Temperatura 2.6 del 25-06-2019 12:00, Menor que la Mínima 10.3 25-06-2019 12:00 2.6 -- 10.3 2019-06-25 12:20:00
2 2019-06-26 12:00:00 Temperatura 1.4 del 26-06-2019 12:00, Menor que la Mínima 2.5 26-06-2019 12:00 1.4 -- 2.5 2019-06-26 12:20:00
2 2019-06-29 12:00:00 Temperatura 5.8 del 29-06-2019 09:00, Menor que la Mínima 6.3 29-06-2019 12:00 5.8 -- 6.3 2019-06-29 12:20:00
2 2019-06-30 12:00:00 Temperatura 1.0 del 30-06-2019 12:00, Menor que la Mínima 6.4 30-06-2019 12:00 1.0 -- 6.4 2019-06-30 12:20:00
2 2019-07-04 12:00:00 Temperatura 4.3 del 04-07-2019 11:00, Menor que la Mínima 6.1 04-07-2019 12:00 4.3 -- 6.1 2022-05-20 18:49:00
2 2019-07-06 12:00:00 Temperatura 5.3 del 06-07-2019 05:00, Menor que la Mínima 11.1 06-07-2019 12:00 5.3 -- 11.1 2019-07-07 06:30:00
2 2019-07-08 12:00:00 Temperatura 5.4 del 08-07-2019 10:00, Menor que la Mínima 8.7 08-07-2019 12:00 5.4 -- 8.7 2019-07-08 12:20:00
2 2019-07-09 12:00:00 Temperatura 5.0 del 09-07-2019 12:00, Menor que la Mínima 6.6 09-07-2019 12:00 5.0 -- 6.6 2019-07-09 12:20:00
2 2019-07-10 12:00:00 Temperatura 1.6 del 10-07-2019 12:00, Menor que la Mínima 4.8 10-07-2019 12:00 1.6 -- 4.8 2019-07-10 12:20:00
2 2019-07-12 12:00:00 Temperatura 0.0 del 12-07-2019 12:00, Menor que la Mínima 4.2 12-07-2019 12:00 0.0 -- 4.2 2019-07-12 12:20:00
2 2019-07-14 12:00:00 Temperatura 0.5 del 14-07-2019 09:00, Menor que la Mínima 1.5 14-07-2019 12:00 0.5 -- 1.5 2019-07-14 12:20:00
2 2019-07-16 12:00:00 Temperatura 0.5 del 16-07-2019 11:00, Menor que la Mínima 10.9 16-07-2019 12:00 0.5 -- 10.9 2019-07-17 13:30:00
2 2019-07-18 12:00:00 Temperatura 1.9 del 18-07-2019 11:00, Menor que la Mínima 2.1 18-07-2019 12:00 1.9 -- 2.1 2019-07-18 12:20:00
2 2019-07-21 12:00:00 Temperatura 6.3 del 21-07-2019 09:00, Menor que la Mínima 7.1 21-07-2019 12:00 6.3 -- 7.1 2019-07-21 12:20:00
2 2019-07-22 12:00:00 Temperatura 4.2 del 22-07-2019 12:00, Menor que la Mínima 6.2 22-07-2019 12:00 4.2 -- 6.2 2019-07-22 12:20:00
2 2019-07-23 12:00:00 Temperatura 1.9 del 23-07-2019 08:00, Menor que la Mínima 4.0 23-07-2019 12:00 1.9 -- 4.0 2019-07-23 12:20:00
2 2019-07-24 12:00:00 Temperatura -1.3 del 24-07-2019 11:00, Menor que la Mínima 2.7 24-07-2019 12:00 -1.3 -- 2.7 2019-07-24 12:20:00
2 2023-02-28 12:00:00 Temperatura 12.3 del 28-02-2023 10:00, Menor que la Mínima 18.5 28-02-2023 12:00 12.3 -- 18.5 2023-02-28 12:20:00
2 2023-03-12 12:00:00 Temperatura 13.2 del 12-03-2023 10:00, Menor que la Mínima 14.2 12-03-2023 12:00 13.2 -- 14.2 2023-03-12 12:20:00
2 2023-03-14 12:00:00 Temperatura 13.4 del 14-03-2023 10:00, Menor que la Mínima 16.2 14-03-2023 12:00 13.4 -- 16.2 2023-03-14 12:20:00
2 2020-09-13 00:00:00 Temperatura 24.2 del 12-09-2020 17:00, Mayor que la Máxima 16.1 13-09-2020 00:00 24.2 -- 16.1 2020-09-13 00:20:00
2 2023-03-09 00:00:00 Temperatura 30.5 del 08-03-2023 18:00, Mayor que la Máxima 21.0 09-03-2023 00:00 30.5 -- 21.0 2023-03-09 00:20:00
2 2023-06-29 00:00:00 Temperatura 27.4 del 28-06-2023 18:00, Mayor que la Máxima 27.2 29-06-2023 00:00 27.4 -- 27.2 2023-06-29 00:08:00
Errores del Nivel 560
Informe generado el 23-02-2024 10:16
Requerimiento: RE6001